Observation data for Lesley on 07/17/2019      Previous  Date  Next       Current Mesonet Observations  Soil Data  Daily Summary Page  Observations in Plain Language
KLE1 170500Z 13004KT 29/16 A2996 RMK A01 T02930159  RH  044%=      5-min Rain = 0
KLE1 170501Z 12004KT 29/16 A2996 RMK A01 T02930160  RH  044%=      5-min Rain = 0
KLE1 170502Z 12004KT 29/16 A2996 RMK A01 T02920160  RH  045%=      5-min Rain = 0
KLE1 170503Z 11004KT 29/16 A2996 RMK A01 T02910159  RH  045%=      5-min Rain = 0
KLE1 170504Z 11004KT 29/16 A2996 RMK A01 T02900159  RH  045%=      5-min Rain = 0
KLE1 170505Z 11004KT 29/16 A2996 RMK A01 T02880158  RH  045%=      5-min Rain = 0
KLE1 170506Z 11004KT 29/16 A2996 RMK A01 T02860158  RH  046%=      5-min Rain = 0
KLE1 170507Z 11004KT 29/16 A2996 RMK A01 T02850157  RH  046%=      5-min Rain = 0
KLE1 170508Z 12005KT 28/16 A2996 RMK A01 T02840157  RH  046%=      5-min Rain = 0
KLE1 170509Z 12005KT 28/16 A2996 RMK A01 T02830158  RH  047%=      5-min Rain = 0
KLE1 170510Z 12005KT 28/16 A2996 RMK A01 T02840159  RH  047%=      5-min Rain = 0
KLE1 170511Z 12005KT 28/16 A2996 RMK A01 T02840159  RH  046%=      5-min Rain = 0
KLE1 170512Z 12005KT 28/16 A2996 RMK A01 T02840158  RH  046%=      5-min Rain = 0
KLE1 170513Z 13005KT 28/16 A2996 RMK A01 T02840158  RH  046%=      5-min Rain = 0
KLE1 170514Z 13005KT 28/16 A2995 RMK A01 T02830158  RH  047%=      5-min Rain = 0
KLE1 170515Z 13006KT 28/16 A2995 RMK A01 T02840159  RH  047%=      5-min Rain = 0
KLE1 170516Z 14007KT 28/16 A2995 RMK A01 T02840160  RH  047%=      5-min Rain = 0
KLE1 170517Z 14006KT 29/16 A2995 RMK A01 T02850161  RH  047%=      5-min Rain = 0
KLE1 170518Z 14007KT 29/16 A2995 RMK A01 T02860161  RH  047%=      5-min Rain = 0
KLE1 170519Z 15007KT 29/16 A2995 RMK A01 T02860162  RH  047%=      5-min Rain = 0
KLE1 170520Z 14007KT 29/16 A2995 RMK A01 T02860163  RH  047%=      5-min Rain = 0
KLE1 170521Z 15007KT 29/16 A2995 RMK A01 T02860163  RH  047%=      5-min Rain = 0
KLE1 170522Z 15007KT 29/16 A2995 RMK A01 T02860163  RH  047%=      5-min Rain = 0
KLE1 170523Z 15007KT 29/16 A2995 RMK A01 T02870164  RH  047%=      5-min Rain = 0
KLE1 170524Z 15009KT 29/16 A2995 RMK A01 T02870164  RH  047%=      5-min Rain = 0
KLE1 170525Z 15008KT 29/16 A2995 RMK A01 T02870164  RH  047%=      5-min Rain = 0
KLE1 170526Z 15007KT 29/17 A2995 RMK A01 T02880165  RH  047%=      5-min Rain = 0
KLE1 170527Z 15007KT 29/17 A2995 RMK A01 T02880165  RH  047%=      5-min Rain = 0
KLE1 170528Z 15007KT 29/17 A2995 RMK A01 T02880166  RH  047%=      5-min Rain = 0
KLE1 170529Z 15007KT 29/17 A2995 RMK A01 T02870165  RH  048%=      5-min Rain = 0
KLE1 170530Z 15006KT 29/17 A2995 RMK A01 T02870166  RH  048%=      5-min Rain = 0
KLE1 170531Z 15007KT 29/17 A2995 RMK A01 T02870166  RH  048%=      5-min Rain = 0
KLE1 170532Z 15007KT 29/17 A2995 RMK A01 T02870166  RH  048%=      5-min Rain = 0
KLE1 170533Z 15007KT 29/17 A2995 RMK A01 T02860166  RH  048%=      5-min Rain = 0
KLE1 170534Z 15007KT 29/17 A2995 RMK A01 T02860166  RH  048%=      5-min Rain = 0
KLE1 170535Z 15007KT 29/17 A2995 RMK A01 T02860166  RH  048%=      5-min Rain = 0
KLE1 170536Z 15007KT 29/17 A2995 RMK A01 T02850166  RH  048%=      5-min Rain = 0
KLE1 170537Z 15007KT 29/17 A2995 RMK A01 T02850166  RH  049%=      5-min Rain = 0
KLE1 170538Z 15008KT 29/17 A2995 RMK A01 T02850166  RH  049%=      5-min Rain = 0
KLE1 170539Z 15007KT 29/17 A2995 RMK A01 T02850166  RH  049%=      5-min Rain = 0
KLE1 170540Z 15007KT 29/17 A2995 RMK A01 T02850166  RH  048%=      5-min Rain = 0
KLE1 170541Z 15007KT 29/17 A2995 RMK A01 T02860166  RH  048%=      5-min Rain = 0
KLE1 170542Z 15008KT 29/17 A2995 RMK A01 T02850166  RH  048%=      5-min Rain = 0
KLE1 170543Z 15007KT 29/17 A2995 RMK A01 T02860166  RH  048%=      5-min Rain = 0
KLE1 170544Z 15007KT 29/17 A2995 RMK A01 T02860166  RH  048%=      5-min Rain = 0
KLE1 170545Z 16007KT 29/17 A2995 RMK A01 T02860166  RH  048%=      5-min Rain = 0
KLE1 170546Z 15006KT 29/17 A2995 RMK A01 T02860167  RH  049%=      5-min Rain = 0
KLE1 170547Z 15006KT 29/17 A2995 RMK A01 T02860167  RH  049%=      5-min Rain = 0
KLE1 170548Z 15006KT 29/17 A2995 RMK A01 T02860167  RH  049%=      5-min Rain = 0
KLE1 170549Z 14007KT 29/17 A2995 RMK A01 T02860167  RH  049%=      5-min Rain = 0
KLE1 170550Z 15006KT 29/17 A2995 RMK A01 T02860167  RH  049%=      5-min Rain = 0
KLE1 170551Z 16006KT 29/17 A2995 RMK A01 T02860167  RH  049%=      5-min Rain = 0
KLE1 170552Z 15005KT 29/17 A2995 RMK A01 T02850167  RH  049%=      5-min Rain = 0
KLE1 170553Z 15006KT 29/17 A2995 RMK A01 T02850168  RH  049%=      5-min Rain = 0
KLE1 170554Z 17008KT 28/17 A2995 RMK A01 T02840168  RH  049%=      5-min Rain = 0
KLE1 170555Z 16007KT 29/17 A2995 RMK A01 T02850169  RH  049%=      5-min Rain = 0
KLE1 170556Z 16008KT 29/17 A2995 RMK A01 T02860169  RH  049%=      5-min Rain = 0
KLE1 170557Z 15007KT 29/17 A2995 RMK A01 T02870169  RH  049%=      5-min Rain = 0
KLE1 170558Z 15006KT 29/17 A2996 RMK A01 T02880169  RH  049%=      5-min Rain = 0
KLE1 170559Z 15008KT 29/17 A2996 RMK A01 T02880169  RH  049%=      5-min Rain = 0
KLE1 170600Z 16007KT 29/17 A2996 RMK A01 T02880169  RH  049%=      5-min Rain = 0
KLE1 170601Z 15006KT 29/17 A2996 RMK A01 T02880169  RH  049%=      5-min Rain = 0
KLE1 170602Z 15007KT 29/17 A2996 RMK A01 T02880169  RH  049%=      5-min Rain = 0
KLE1 170603Z 15006KT 29/17 A2996 RMK A01 T02880169  RH  049%=      5-min Rain = 0
KLE1 170604Z 15006KT 29/17 A2996 RMK A01 T02880170  RH  049%=      5-min Rain = 0
KLE1 170605Z 16008KT 29/17 A2996 RMK A01 T02870170  RH  049%=      5-min Rain = 0
KLE1 170606Z 15006KT 29/17 A2996 RMK A01 T02870170  RH  049%=      5-min Rain = 0
KLE1 170607Z 15008KT 29/17 A2995 RMK A01 T02870170  RH  049%=      5-min Rain = 0
KLE1 170608Z 14007KT 29/17 A2995 RMK A01 T02860170  RH  049%=      5-min Rain = 0
KLE1 170609Z 14007KT 29/17 A2995 RMK A01 T02860170  RH  049%=      5-min Rain = 0
KLE1 170610Z 14006KT 29/17 A2995 RMK A01 T02860170  RH  050%=      5-min Rain = 0
KLE1 170611Z 15007KT 29/17 A2995 RMK A01 T02850171  RH  050%=      5-min Rain = 0
KLE1 170612Z 15007KT 29/17 A2995 RMK A01 T02850171  RH  050%=      5-min Rain = 0
KLE1 170613Z 15006KT 29/17 A2995 RMK A01 T02860171  RH  050%=      5-min Rain = 0
KLE1 170614Z 15008KT 29/17 A2995 RMK A01 T02850171  RH  050%=      5-min Rain = 0
KLE1 170615Z 15007KT 28/17 A2995 RMK A01 T02840172  RH  050%=      5-min Rain = 0
KLE1 170616Z 15006KT 28/17 A2995 RMK A01 T02840172  RH  051%=      5-min Rain = 0
KLE1 170617Z 15006KT 28/17 A2995 RMK A01 T02830171  RH  051%=      5-min Rain = 0
KLE1 170618Z 16007KT 28/17 A2995 RMK A01 T02830172  RH  051%=      5-min Rain = 0
KLE1 170619Z 15008KT 28/17 A2995 RMK A01 T02830172  RH  051%=      5-min Rain = 0
KLE1 170620Z 15006KT 28/17 A2995 RMK A01 T02840173  RH  051%=      5-min Rain = 0
KLE1 170621Z 16006KT 29/17 A2995 RMK A01 T02850173  RH  051%=      5-min Rain = 0
KLE1 170622Z 16006KT 28/17 A2995 RMK A01 T02840172  RH  051%=      5-min Rain = 0
KLE1 170623Z 16006KT 28/17 A2995 RMK A01 T02840173  RH  051%=      5-min Rain = 0
KLE1 170624Z 16006KT 28/17 A2995 RMK A01 T02830172  RH  051%=      5-min Rain = 0
KLE1 170625Z 16006KT 28/17 A2995 RMK A01 T02820173  RH  051%=      5-min Rain = 0
KLE1 170626Z 16007KT 28/17 A2995 RMK A01 T02830173  RH  051%=      5-min Rain = 0
KLE1 170627Z 16006KT 28/17 A2995 RMK A01 T02820173  RH  052%=      5-min Rain = 0
KLE1 170628Z 15007KT 28/17 A2995 RMK A01 T02820173  RH  052%=      5-min Rain = 0
KLE1 170629Z 15006KT 28/17 A2995 RMK A01 T02830174  RH  052%=      5-min Rain = 0
KLE1 170630Z 15006KT 28/17 A2995 RMK A01 T02820174  RH  052%=      5-min Rain = 0
KLE1 170631Z 14006KT 28/17 A2995 RMK A01 T02820174  RH  052%=      5-min Rain = 0
KLE1 170632Z 15007KT 28/17 A2995 RMK A01 T02810174  RH  052%=      5-min Rain = 0
KLE1 170633Z 15007KT 28/18 A2995 RMK A01 T02820175  RH  052%=      5-min Rain = 0
KLE1 170634Z 15006KT 28/18 A2995 RMK A01 T02820175  RH  052%=      5-min Rain = 0
KLE1 170635Z 14006KT 28/18 A2995 RMK A01 T02830175  RH  052%=      5-min Rain = 0
KLE1 170636Z 14006KT 28/18 A2995 RMK A01 T02820175  RH  052%=      5-min Rain = 0
KLE1 170637Z 14008KT 28/18 A2995 RMK A01 T02820175  RH  053%=      5-min Rain = 0
KLE1 170638Z 14005KT 28/18 A2995 RMK A01 T02820176  RH  053%=      5-min Rain = 0
KLE1 170639Z 14006KT 28/18 A2995 RMK A01 T02820175  RH  052%=      5-min Rain = 0
KLE1 170640Z 14005KT 28/18 A2995 RMK A01 T02820176  RH  052%=      5-min Rain = 0
KLE1 170641Z 15006KT 28/18 A2995 RMK A01 T02820176  RH  052%=      5-min Rain = 0
KLE1 170642Z 14006KT 28/18 A2995 RMK A01 T02810176  RH  053%=      5-min Rain = 0
KLE1 170643Z 15006KT 28/18 A2995 RMK A01 T02810176  RH  053%=      5-min Rain = 0
KLE1 170644Z 14006KT 28/18 A2995 RMK A01 T02810177  RH  053%=      5-min Rain = 0
KLE1 170645Z 14007KT 28/18 A2995 RMK A01 T02810177  RH  053%=      5-min Rain = 0
KLE1 170646Z 14005KT 28/18 A2995 RMK A01 T02820177  RH  053%=      5-min Rain = 0
KLE1 170647Z 15007KT 28/18 A2995 RMK A01 T02820177  RH  053%=      5-min Rain = 0
KLE1 170648Z 14006KT 28/18 A2995 RMK A01 T02820177  RH  053%=      5-min Rain = 0
KLE1 170649Z 14006KT 28/18 A2995 RMK A01 T02820178  RH  053%=      5-min Rain = 0
KLE1 170650Z 14006KT 28/18 A2995 RMK A01 T02820178  RH  053%=      5-min Rain = 0
KLE1 170651Z 14005KT 28/18 A2995 RMK A01 T02820178  RH  053%=      5-min Rain = 0
KLE1 170652Z 14006KT 28/18 A2995 RMK A01 T02810178  RH  053%=      5-min Rain = 0
KLE1 170653Z 14006KT 28/18 A2995 RMK A01 T02810178  RH  054%=      5-min Rain = 0
KLE1 170654Z 15006KT 28/18 A2995 RMK A01 T02800178  RH  054%=      5-min Rain = 0
KLE1 170655Z 15007KT 28/18 A2995 RMK A01 T02800179  RH  054%=      5-min Rain = 0
KLE1 170656Z 15007KT 28/18 A2994 RMK A01 T02800179  RH  054%=      5-min Rain = 0
KLE1 170657Z 15006KT 28/18 A2994 RMK A01 T02800178  RH  054%=      5-min Rain = 0
KLE1 170658Z 15006KT 28/18 A2994 RMK A01 T02810179  RH  054%=      5-min Rain = 0
KLE1 170659Z 15006KT 28/18 A2994 RMK A01 T02810179  RH  054%=      5-min Rain = 0
KLE1 170700Z 15006KT 28/18 A2994 RMK A01 T02810179  RH  054%=      5-min Rain = 0
KLE1 170701Z 15006KT 28/18 A2994 RMK A01 T02810180  RH  054%=      5-min Rain = 0
KLE1 170702Z 16007KT 28/18 A2994 RMK A01 T02800179  RH  054%=      5-min Rain = 0
KLE1 170703Z 15007KT 28/18 A2994 RMK A01 T02800179  RH  054%=      5-min Rain = 0
KLE1 170704Z 15005KT 28/18 A2994 RMK A01 T02800179  RH  054%=      5-min Rain = 0
KLE1 170705Z 15006KT 28/18 A2994 RMK A01 T02800180  RH  054%=      5-min Rain = 0
KLE1 170706Z 15006KT 28/18 A2994 RMK A01 T02790180  RH  055%=      5-min Rain = 0
KLE1 170707Z 15006KT 28/18 A2994 RMK A01 T02790180  RH  055%=      5-min Rain = 0
KLE1 170708Z 16006KT 28/18 A2994 RMK A01 T02790180  RH  055%=      5-min Rain = 0
KLE1 170709Z 15008KT 28/18 A2994 RMK A01 T02790180  RH  055%=      5-min Rain = 0
KLE1 170710Z 15006KT 28/18 A2994 RMK A01 T02790180  RH  055%=      5-min Rain = 0
KLE1 170711Z 16006KT 28/18 A2994 RMK A01 T02790180  RH  055%=      5-min Rain = 0
KLE1 170712Z 16006KT 28/18 A2994 RMK A01 T02790180  RH  055%=      5-min Rain = 0
KLE1 170713Z 16007KT 28/18 A2994 RMK A01 T02790181  RH  055%=      5-min Rain = 0
KLE1 170714Z 16007KT 28/18 A2994 RMK A01 T02790181  RH  055%=      5-min Rain = 0
KLE1 170715Z 17006KT 28/18 A2994 RMK A01 T02790180  RH  055%=      5-min Rain = 0
KLE1 170716Z 17006KT 28/18 A2994 RMK A01 T02800181  RH  055%=      5-min Rain = 0
KLE1 170717Z 18006KT 28/18 A2994 RMK A01 T02790181  RH  055%=      5-min Rain = 0
KLE1 170718Z 17005KT 28/18 A2994 RMK A01 T02800181  RH  055%=      5-min Rain = 0
KLE1 170719Z 16006KT 28/18 A2994 RMK A01 T02800180  RH  055%=      5-min Rain = 0
KLE1 170720Z 18006KT 28/18 A2994 RMK A01 T02800181  RH  055%=      5-min Rain = 0
KLE1 170721Z 18006KT 28/18 A2994 RMK A01 T02790181  RH  055%=      5-min Rain = 0
KLE1 170722Z 17005KT 28/18 A2994 RMK A01 T02790181  RH  055%=      5-min Rain = 0
KLE1 170723Z 17006KT 28/18 A2994 RMK A01 T02790181  RH  055%=      5-min Rain = 0
KLE1 170724Z 18005KT 28/18 A2994 RMK A01 T02790181  RH  055%=      5-min Rain = 0
KLE1 170725Z 17005KT 28/18 A2994 RMK A01 T02790181  RH  055%=      5-min Rain = 0
KLE1 170726Z 17007KT 28/18 A2994 RMK A01 T02790181  RH  055%=      5-min Rain = 0
KLE1 170727Z 16007KT 28/18 A2994 RMK A01 T02790181  RH  055%=      5-min Rain = 0
KLE1 170728Z 17006KT 28/18 A2994 RMK A01 T02790181  RH  055%=      5-min Rain = 0
KLE1 170729Z 16005KT 28/18 A2994 RMK A01 T02790181  RH  055%=      5-min Rain = 0
KLE1 170730Z 17005KT 28/18 A2994 RMK A01 T02780181  RH  055%=      5-min Rain = 0
KLE1 170731Z 17005KT 28/18 A2994 RMK A01 T02780181  RH  055%=      5-min Rain = 0
KLE1 170732Z 17004KT 28/18 A2994 RMK A01 T02770181  RH  056%=      5-min Rain = 0
KLE1 170733Z 16004KT 28/18 A2994 RMK A01 T02770181  RH  056%=      5-min Rain = 0
KLE1 170734Z 17005KT 28/18 A2994 RMK A01 T02760181  RH  056%=      5-min Rain = 0
KLE1 170735Z 17005KT 28/18 A2994 RMK A01 T02760181  RH  056%=      5-min Rain = 0
KLE1 170736Z 16004KT 28/18 A2994 RMK A01 T02760181  RH  056%=      5-min Rain = 0
KLE1 170737Z 17004KT 28/18 A2994 RMK A01 T02750180  RH  056%=      5-min Rain = 0
KLE1 170738Z 18005KT 28/18 A2994 RMK A01 T02760181  RH  056%=      5-min Rain = 0
KLE1 170739Z 17005KT 28/18 A2994 RMK A01 T02760180  RH  056%=      5-min Rain = 0
KLE1 170740Z 17005KT 28/18 A2994 RMK A01 T02760180  RH  056%=      5-min Rain = 0
KLE1 170741Z 18007KT 28/18 A2994 RMK A01 T02760180  RH  056%=      5-min Rain = 0
KLE1 170742Z 16007KT 28/18 A2994 RMK A01 T02770180  RH  055%=      5-min Rain = 0
KLE1 170743Z 17006KT 28/18 A2994 RMK A01 T02780180  RH  055%=      5-min Rain = 0
KLE1 170744Z 18006KT 28/18 A2994 RMK A01 T02790180  RH  055%=      5-min Rain = 0
KLE1 170745Z 17005KT 28/18 A2994 RMK A01 T02790180  RH  055%=      5-min Rain = 0
KLE1 170746Z 17005KT 28/18 A2994 RMK A01 T02790180  RH  055%=      5-min Rain = 0
KLE1 170747Z 17007KT 28/18 A2994 RMK A01 T02780180  RH  055%=      5-min Rain = 0
KLE1 170748Z 18007KT 28/18 A2994 RMK A01 T02770179  RH  055%=      5-min Rain = 0
KLE1 170749Z 17007KT 28/18 A2994 RMK A01 T02770180  RH  055%=      5-min Rain = 0
KLE1 170750Z 17007KT 28/18 A2994 RMK A01 T02770180  RH  055%=      5-min Rain = 0
KLE1 170751Z 17009KT 28/18 A2994 RMK A01 T02770180  RH  055%=      5-min Rain = 0
KLE1 170752Z 18008KT 28/18 A2994 RMK A01 T02770179  RH  055%=      5-min Rain = 0
KLE1 170753Z 17007KT 28/18 A2994 RMK A01 T02770179  RH  055%=      5-min Rain = 0
KLE1 170754Z 17010KT 28/18 A2994 RMK A01 T02780179  RH  055%=      5-min Rain = 0
KLE1 170755Z 18009KT 28/18 A2994 RMK A01 T02780178  RH  055%=      5-min Rain = 0
KLE1 170756Z 17007KT 28/18 A2994 RMK A01 T02780178  RH  055%=      5-min Rain = 0
KLE1 170757Z 17008KT 28/18 A2994 RMK A01 T02780179  RH  055%=      5-min Rain = 0
KLE1 170758Z 17007KT 28/18 A2994 RMK A01 T02780179  RH  055%=      5-min Rain = 0
KLE1 170759Z 16008KT 28/18 A2994 RMK A01 T02780179  RH  055%=      5-min Rain = 0
KLE1 170800Z 17007KT 28/18 A2994 RMK A01 T02770179  RH  055%=      5-min Rain = 0
KLE1 170801Z 16007KT 28/18 A2994 RMK A01 T02770179  RH  055%=      5-min Rain = 0
KLE1 170802Z 16006KT 28/18 A2994 RMK A01 T02760178  RH  055%=      5-min Rain = 0
KLE1 170803Z 17005KT 28/18 A2994 RMK A01 T02770178  RH  055%=      5-min Rain = 0
KLE1 170804Z 17004KT 28/18 A2994 RMK A01 T02760178  RH  055%=      5-min Rain = 0
KLE1 170805Z 19004KT 28/18 A2994 RMK A01 T02750178  RH  055%=      5-min Rain = 0
KLE1 170806Z 19005KT 28/18 A2994 RMK A01 T02750178  RH  056%=      5-min Rain = 0
KLE1 170807Z 20004KT 27/18 A2994 RMK A01 T02740178  RH  056%=      5-min Rain = 0
KLE1 170808Z 21003KT 27/18 A2994 RMK A01 T02740178  RH  056%=      5-min Rain = 0
KLE1 170809Z 23004KT 27/18 A2994 RMK A01 T02730178  RH  056%=      5-min Rain = 0
KLE1 170810Z 23003KT 27/18 A2994 RMK A01 T02720178  RH  056%=      5-min Rain = 0
KLE1 170811Z 24003KT 27/18 A2994 RMK A01 T02720178  RH  056%=      5-min Rain = 0
KLE1 170812Z 24004KT 27/18 A2994 RMK A01 T02710178  RH  057%=      5-min Rain = 0
KLE1 170813Z 23004KT 27/18 A2994 RMK A01 T02700177  RH  057%=      5-min Rain = 0
KLE1 170814Z 23003KT 27/18 A2994 RMK A01 T02700178  RH  057%=      5-min Rain = 0
KLE1 170815Z 23004KT 27/18 A2994 RMK A01 T02690177  RH  057%=      5-min Rain = 0
KLE1 170816Z 23004KT 27/18 A2994 RMK A01 T02690177  RH  057%=      5-min Rain = 0
KLE1 170817Z 22005KT 27/18 A2994 RMK A01 T02700177  RH  057%=      5-min Rain = 0
KLE1 170818Z 22004KT 27/18 A2994 RMK A01 T02710177  RH  056%=      5-min Rain = 0
KLE1 170819Z 21004KT 27/18 A2994 RMK A01 T02720177  RH  056%=      5-min Rain = 0
KLE1 170820Z 20005KT 27/18 A2994 RMK A01 T02730177  RH  056%=      5-min Rain = 0
KLE1 170821Z 21005KT 27/18 A2994 RMK A01 T02730176  RH  055%=      5-min Rain = 0
KLE1 170822Z 21006KT 27/18 A2994 RMK A01 T02740177  RH  055%=      5-min Rain = 0
KLE1 170823Z 19007KT 27/18 A2994 RMK A01 T02740176  RH  055%=      5-min Rain = 0
KLE1 170824Z 19008KT 27/18 A2994 RMK A01 T02740176  RH  055%=      5-min Rain = 0
KLE1 170825Z 20009KT 28/18 A2994 RMK A01 T02750176  RH  054%=      5-min Rain = 0
KLE1 170826Z 19008KT 28/18 A2994 RMK A01 T02760175  RH  054%=      5-min Rain = 0
KLE1 170827Z 18008KT 28/18 A2994 RMK A01 T02770176  RH  054%=      5-min Rain = 0
KLE1 170828Z 18009KT 28/18 A2994 RMK A01 T02760176  RH  054%=      5-min Rain = 0
KLE1 170829Z 18008KT 28/18 A2994 RMK A01 T02770176  RH  054%=      5-min Rain = 0
KLE1 170830Z 19010KT 28/18 A2994 RMK A01 T02760176  RH  054%=      5-min Rain = 0
KLE1 170831Z 18008KT 28/18 A2993 RMK A01 T02760176  RH  054%=      5-min Rain = 0
KLE1 170832Z 18008KT 28/18 A2993 RMK A01 T02770176  RH  054%=      5-min Rain = 0
KLE1 170833Z 19008KT 28/18 A2993 RMK A01 T02760176  RH  054%=      5-min Rain = 0
KLE1 170834Z 18007KT 28/18 A2993 RMK A01 T02760176  RH  054%=      5-min Rain = 0
KLE1 170835Z 19008KT 28/18 A2993 RMK A01 T02760176  RH  054%=      5-min Rain = 0
KLE1 170836Z 18009KT 28/18 A2993 RMK A01 T02760176  RH  054%=      5-min Rain = 0
KLE1 170837Z 17007KT 28/18 A2993 RMK A01 T02760176  RH  054%=      5-min Rain = 0
KLE1 170838Z 18008KT 28/18 A2993 RMK A01 T02750176  RH  054%=      5-min Rain = 0
KLE1 170839Z 18010KT 28/18 A2994 RMK A01 T02750176  RH  055%=      5-min Rain = 0
KLE1 170840Z 18008KT 28/18 A2993 RMK A01 T02750176  RH  055%=      5-min Rain = 0
KLE1 170841Z 18009KT 28/18 A2993 RMK A01 T02750176  RH  055%=      5-min Rain = 0
KLE1 170842Z 18010KT 28/18 A2993 RMK A01 T02750176  RH  055%=      5-min Rain = 0
KLE1 170843Z 18009KT 28/18 A2993 RMK A01 T02760176  RH  054%=      5-min Rain = 0
KLE1 170844Z 18010KT 28/18 A2993 RMK A01 T02770176  RH  054%=      5-min Rain = 0
KLE1 170845Z 18010KT 28/18 A2993 RMK A01 T02770176  RH  054%=      5-min Rain = 0
KLE1 170846Z 18008KT 28/18 A2993 RMK A01 T02770176  RH  054%=      5-min Rain = 0
KLE1 170847Z 18008KT 28/18 A2993 RMK A01 T02770176  RH  054%=      5-min Rain = 0
KLE1 170848Z 18009KT 28/18 A2993 RMK A01 T02770176  RH  054%=      5-min Rain = 0
KLE1 170849Z 18010KT 28/18 A2993 RMK A01 T02760176  RH  054%=      5-min Rain = 0
KLE1 170850Z 19010KT 28/18 A2993 RMK A01 T02770177  RH  054%=      5-min Rain = 0
KLE1 170851Z 18011KT 28/18 A2993 RMK A01 T02770177  RH  054%=      5-min Rain = 0
KLE1 170852Z 18010KT 28/18 A2993 RMK A01 T02770176  RH  054%=      5-min Rain = 0
KLE1 170853Z 18011KT 28/18 A2993 RMK A01 T02770177  RH  054%=      5-min Rain = 0
KLE1 170854Z 18008KT 28/18 A2993 RMK A01 T02770176  RH  054%=      5-min Rain = 0
KLE1 170855Z 17009KT 28/18 A2993 RMK A01 T02770176  RH  054%=      5-min Rain = 0
KLE1 170856Z 18009KT 28/18 A2993 RMK A01 T02770177  RH  054%=      5-min Rain = 0
KLE1 170857Z 18011G16KT 28/18 A2993 RMK A01 T02780177  RH  054%=      5-min Rain = 0
KLE1 170858Z 18012KT 28/18 A2993 RMK A01 T02780177  RH  054%=      5-min Rain = 0
KLE1 170859Z 18010KT 28/18 A2993 RMK A01 T02790177  RH  054%=      5-min Rain = 0
KLE1 170900Z 18011KT 28/18 A2993 RMK A01 T02780177  RH  054%=      5-min Rain = 0
KLE1 170901Z 18011KT 28/18 A2993 RMK A01 T02780177  RH  054%=      5-min Rain = 0
KLE1 170902Z 18010KT 28/18 A2993 RMK A01 T02780177  RH  054%=      5-min Rain = 0
KLE1 170903Z 19014KT 28/18 A2993 RMK A01 T02770177  RH  054%=      5-min Rain = 0
KLE1 170904Z 19011KT 28/18 A2993 RMK A01 T02790177  RH  054%=      5-min Rain = 0
KLE1 170905Z 19008KT 28/18 A2993 RMK A01 T02820178  RH  053%=      5-min Rain = 0
KLE1 170906Z 18011KT 28/18 A2994 RMK A01 T02820177  RH  053%=      5-min Rain = 0
KLE1 170907Z 18011KT 28/18 A2994 RMK A01 T02820177  RH  053%=      5-min Rain = 0
KLE1 170908Z 18010KT 28/18 A2994 RMK A01 T02800177  RH  053%=      5-min Rain = 0
KLE1 170909Z 18009KT 28/18 A2994 RMK A01 T02790177  RH  054%=      5-min Rain = 0
KLE1 170910Z 18010KT 28/18 A2994 RMK A01 T02780177  RH  054%=      5-min Rain = 0
KLE1 170911Z 20010KT 28/18 A2994 RMK A01 T02780177  RH  054%=      5-min Rain = 0
KLE1 170912Z 20010KT 28/18 A2994 RMK A01 T02780177  RH  054%=      5-min Rain = 0
KLE1 170913Z 20010KT 28/18 A2994 RMK A01 T02780177  RH  054%=      5-min Rain = 0
KLE1 170914Z 20010KT 28/18 A2994 RMK A01 T02790177  RH  054%=      5-min Rain = 0
KLE1 170915Z 20009KT 28/18 A2994 RMK A01 T02780177  RH  054%=      5-min Rain = 0
KLE1 170916Z 20009KT 28/18 A2994 RMK A01 T02780177  RH  054%=      5-min Rain = 0
KLE1 170917Z 21010KT 28/18 A2994 RMK A01 T02770177  RH  054%=      5-min Rain = 0
KLE1 170918Z 21009KT 28/18 A2994 RMK A01 T02770177  RH  055%=      5-min Rain = 0
KLE1 170919Z 21007KT 28/18 A2994 RMK A01 T02760177  RH  055%=      5-min Rain = 0
KLE1 170920Z 21007KT 28/18 A2994 RMK A01 T02750177  RH  055%=      5-min Rain = 0
KLE1 170921Z 22007KT 27/18 A2994 RMK A01 T02730177  RH  055%=      5-min Rain = 0
KLE1 170922Z 21007KT 27/18 A2994 RMK A01 T02720177  RH  056%=      5-min Rain = 0
KLE1 170923Z 22007KT 27/18 A2994 RMK A01 T02710177  RH  056%=      5-min Rain = 0
KLE1 170924Z 21006KT 27/18 A2994 RMK A01 T02700177  RH  057%=      5-min Rain = 0
KLE1 170925Z 21006KT 27/18 A2994 RMK A01 T02690177  RH  057%=      5-min Rain = 0
KLE1 170926Z 21006KT 27/18 A2994 RMK A01 T02680177  RH  058%=      5-min Rain = 0
KLE1 170927Z 21006KT 27/18 A2994 RMK A01 T02670177  RH  058%=      5-min Rain = 0
KLE1 170928Z 21006KT 27/18 A2994 RMK A01 T02660177  RH  058%=      5-min Rain = 0
KLE1 170929Z 21006KT 27/18 A2994 RMK A01 T02650177  RH  058%=      5-min Rain = 0
KLE1 170930Z 20006KT 27/18 A2994 RMK A01 T02650177  RH  058%=      5-min Rain = 0
KLE1 170931Z 20005KT 27/18 A2994 RMK A01 T02650177  RH  059%=      5-min Rain = 0
KLE1 170932Z 20005KT 26/18 A2994 RMK A01 T02640177  RH  059%=      5-min Rain = 0
KLE1 170933Z 19005KT 26/18 A2994 RMK A01 T02630177  RH  059%=      5-min Rain = 0
KLE1 170934Z 19005KT 26/18 A2994 RMK A01 T02630177  RH  059%=      5-min Rain = 0
KLE1 170935Z 18005KT 26/18 A2994 RMK A01 T02620177  RH  059%=      5-min Rain = 0
KLE1 170936Z 18005KT 26/18 A2994 RMK A01 T02620177  RH  059%=      5-min Rain = 0
KLE1 170937Z 18005KT 26/18 A2994 RMK A01 T02610177  RH  060%=      5-min Rain = 0
KLE1 170938Z 17005KT 26/18 A2994 RMK A01 T02610177  RH  060%=      5-min Rain = 0
KLE1 170939Z 17004KT 26/18 A2994 RMK A01 T02610177  RH  060%=      5-min Rain = 0
KLE1 170940Z 17004KT 26/18 A2994 RMK A01 T02610177  RH  060%=      5-min Rain = 0
KLE1 170941Z 17004KT 26/18 A2994 RMK A01 T02610177  RH  060%=      5-min Rain = 0
KLE1 170942Z 17003KT 26/18 A2994 RMK A01 T02610178  RH  060%=      5-min Rain = 0
KLE1 170943Z 15003KT 26/18 A2994 RMK A01 T02600177  RH  060%=      5-min Rain = 0
KLE1 170944Z 14002KT 26/18 A2994 RMK A01 T02600177  RH  060%=      5-min Rain = 0
KLE1 170945Z 17003KT 26/18 A2994 RMK A01 T02600177  RH  060%=      5-min Rain = 0
KLE1 170946Z 19003KT 26/18 A2994 RMK A01 T02600177  RH  060%=      5-min Rain = 0
KLE1 170947Z 17003KT 26/18 A2994 RMK A01 T02610177  RH  060%=      5-min Rain = 0
KLE1 170948Z 18002KT 26/18 A2994 RMK A01 T02610176  RH  060%=      5-min Rain = 0
KLE1 170949Z 19001KT 26/18 A2994 RMK A01 T02620177  RH  059%=      5-min Rain = 0
KLE1 170950Z 18001KT 26/18 A2995 RMK A01 T02620176  RH  059%=      5-min Rain = 0
KLE1 170951Z 19000KT 26/18 A2995 RMK A01 T02630177  RH  059%=      5-min Rain = 0
KLE1 170952Z 00000KT 26/18 A2995 RMK A01 T02630176  RH  059%=      5-min Rain = 0
KLE1 170953Z 26000KT 26/18 A2995 RMK A01 T02630177  RH  059%=      5-min Rain = 0
KLE1 170954Z 32001KT 26/18 A2995 RMK A01 T02640177  RH  059%=      5-min Rain = 0
KLE1 170955Z 33000KT 26/18 A2995 RMK A01 T02640177  RH  059%=      5-min Rain = 0
KLE1 170956Z 36000KT 26/18 A2995 RMK A01 T02640176  RH  058%=      5-min Rain = 0
KLE1 170957Z 00002KT 26/18 A2995 RMK A01 T02640177  RH  059%=      5-min Rain = 0
KLE1 170958Z 36001KT 26/18 A2995 RMK A01 T02640177  RH  059%=      5-min Rain = 0
KLE1 170959Z 31000KT 26/18 A2995 RMK A01 T02640176  RH  059%=      5-min Rain = 0
KLE1 171000Z 00000KT 26/18 A2995 RMK A01 T02640177  RH  059%=      5-min Rain = 0
KLE1 171001Z 00000KT 26/18 A2995 RMK A01 T02630177  RH  059%=      5-min Rain = 0
KLE1 171002Z 00000KT 26/18 A2995 RMK A01 T02630177  RH  059%=      5-min Rain = 0
KLE1 171003Z 00000KT 26/18 A2995 RMK A01 T02630176  RH  059%=      5-min Rain = 0
KLE1 171004Z 16001KT 26/18 A2995 RMK A01 T02640176  RH  059%=      5-min Rain = 0
KLE1 171005Z 17001KT 26/18 A2994 RMK A01 T02640177  RH  059%=      5-min Rain = 0
KLE1 171006Z 17000KT 27/18 A2994 RMK A01 T02650177  RH  058%=      5-min Rain = 0
KLE1 171007Z 18000KT 27/18 A2994 RMK A01 T02650177  RH  058%=      5-min Rain = 0
KLE1 171008Z 00000KT 27/18 A2994 RMK A01 T02650177  RH  058%=      5-min Rain = 0
KLE1 171009Z 00000KT 27/18 A2994 RMK A01 T02650177  RH  058%=      5-min Rain = 0
KLE1 171010Z 00000KT 27/18 A2995 RMK A01 T02650176  RH  058%=      5-min Rain = 0
KLE1 171011Z 00000KT 27/18 A2995 RMK A01 T02650176  RH  058%=      5-min Rain = 0
KLE1 171012Z 00000KT 27/18 A2995 RMK A01 T02650176  RH  058%=      5-min Rain = 0
KLE1 171013Z 00000KT 27/18 A2995 RMK A01 T02650176  RH  058%=      5-min Rain = 0
KLE1 171014Z 00000KT 27/18 A2995 RMK A01 T02650177  RH  058%=      5-min Rain = 0
KLE1 171015Z 00000KT 27/18 A2995 RMK A01 T02650176  RH  058%=      5-min Rain = 0
KLE1 171016Z 15000KT 27/18 A2995 RMK A01 T02650176  RH  058%=      5-min Rain = 0
KLE1 171017Z 14001KT 27/18 A2995 RMK A01 T02650176  RH  058%=      5-min Rain = 0
KLE1 171018Z 13001KT 27/18 A2995 RMK A01 T02660177  RH  058%=      5-min Rain = 0
KLE1 171019Z 13002KT 27/18 A2995 RMK A01 T02660177  RH  058%=      5-min Rain = 0
KLE1 171020Z 12003KT 27/18 A2994 RMK A01 T02670177  RH  058%=      5-min Rain = 0
KLE1 171021Z 12003KT 27/18 A2994 RMK A01 T02670177  RH  058%=      5-min Rain = 0
KLE1 171022Z 12002KT 27/18 A2994 RMK A01 T02670177  RH  058%=      5-min Rain = 0
KLE1 171023Z 12002KT 27/18 A2995 RMK A01 T02680177  RH  058%=      5-min Rain = 0
KLE1 171024Z 12002KT 27/18 A2995 RMK A01 T02670177  RH  058%=      5-min Rain = 0
KLE1 171025Z 13002KT 27/18 A2995 RMK A01 T02650176  RH  058%=      5-min Rain = 0
KLE1 171026Z 11002KT 26/18 A2995 RMK A01 T02640176  RH  058%=      5-min Rain = 0
KLE1 171027Z 10002KT 26/18 A2995 RMK A01 T02640176  RH  058%=      5-min Rain = 0
KLE1 171028Z 11002KT 26/18 A2995 RMK A01 T02640176  RH  058%=      5-min Rain = 0
KLE1 171029Z 11002KT 26/18 A2995 RMK A01 T02630175  RH  059%=      5-min Rain = 0
KLE1 171030Z 10002KT 26/18 A2994 RMK A01 T02620176  RH  059%=      5-min Rain = 0
KLE1 171031Z 11003KT 26/18 A2994 RMK A01 T02620176  RH  059%=      5-min Rain = 0
KLE1 171032Z 11003KT 26/18 A2994 RMK A01 T02610175  RH  059%=      5-min Rain = 0
KLE1 171033Z 12003KT 26/18 A2994 RMK A01 T02600175  RH  059%=      5-min Rain = 0
KLE1 171034Z 12004KT 26/18 A2994 RMK A01 T02590175  RH  060%=      5-min Rain = 0
KLE1 171035Z 11004KT 26/18 A2994 RMK A01 T02580175  RH  060%=      5-min Rain = 0
KLE1 171036Z 11004KT 26/18 A2994 RMK A01 T02570175  RH  060%=      5-min Rain = 0
KLE1 171037Z 11005KT 26/18 A2994 RMK A01 T02570175  RH  061%=      5-min Rain = 0
KLE1 171038Z 11004KT 26/18 A2994 RMK A01 T02560175  RH  061%=      5-min Rain = 0
KLE1 171039Z 12004KT 26/18 A2994 RMK A01 T02550175  RH  061%=      5-min Rain = 0
KLE1 171040Z 12004KT 26/18 A2994 RMK A01 T02550175  RH  061%=      5-min Rain = 0
KLE1 171041Z 12005KT 25/18 A2994 RMK A01 T02540175  RH  062%=      5-min Rain = 0
KLE1 171042Z 12005KT 25/18 A2994 RMK A01 T02540176  RH  062%=      5-min Rain = 0
KLE1 171043Z 14005KT 25/18 A2994 RMK A01 T02540176  RH  062%=      5-min Rain = 0
KLE1 171044Z 13005KT 25/18 A2994 RMK A01 T02540176  RH  062%=      5-min Rain = 0
KLE1 171045Z 14005KT 25/18 A2994 RMK A01 T02540176  RH  062%=      5-min Rain = 0
KLE1 171046Z 14006KT 25/18 A2994 RMK A01 T02540176  RH  062%=      5-min Rain = 0
KLE1 171047Z 14005KT 25/18 A2994 RMK A01 T02540176  RH  062%=      5-min Rain = 0
KLE1 171048Z 14005KT 26/18 A2994 RMK A01 T02550177  RH  062%=      5-min Rain = 0
KLE1 171049Z 14006KT 26/18 A2994 RMK A01 T02550177  RH  062%=      5-min Rain = 0
KLE1 171050Z 13006KT 26/18 A2994 RMK A01 T02550177  RH  062%=      5-min Rain = 0
KLE1 171051Z 13005KT 26/18 A2994 RMK A01 T02560178  RH  062%=      5-min Rain = 0
KLE1 171052Z 12006KT 26/18 A2994 RMK A01 T02560178  RH  062%=      5-min Rain = 0
KLE1 171053Z 12005KT 26/18 A2994 RMK A01 T02550178  RH  062%=      5-min Rain = 0
KLE1 171054Z 11004KT 25/18 A2994 RMK A01 T02540178  RH  063%=      5-min Rain = 0
KLE1 171055Z 12002KT 25/18 A2994 RMK A01 T02530178  RH  063%=      5-min Rain = 0
KLE1 171056Z 10001KT 25/18 A2994 RMK A01 T02530178  RH  063%=      5-min Rain = 0
KLE1 171057Z 08001KT 25/18 A2995 RMK A01 T02520178  RH  063%=      5-min Rain = 0
KLE1 171058Z 06001KT 25/18 A2995 RMK A01 T02520177  RH  063%=      5-min Rain = 0
KLE1 171059Z 06002KT 25/18 A2995 RMK A01 T02510176  RH  063%=      5-min Rain = 0
KLE1 171100Z 04001KT 25/18 A2995 RMK A01 T02510176  RH  063%=      5-min Rain = 0
KLE1 171101Z 03002KT 25/18 A2995 RMK A01 T02510176  RH  063%=      5-min Rain = 0
KLE1 171102Z 05001KT 25/18 A2995 RMK A01 T02520175  RH  063%=      5-min Rain = 0
KLE1 171103Z 06001KT 25/18 A2995 RMK A01 T02520176  RH  062%=      5-min Rain = 0
KLE1 171104Z 07001KT 25/18 A2995 RMK A01 T02540176  RH  062%=      5-min Rain = 0
KLE1 171105Z 09002KT 26/18 A2995 RMK A01 T02560177  RH  062%=      5-min Rain = 0
KLE1 171106Z 09002KT 26/18 A2995 RMK A01 T02580177  RH  061%=      5-min Rain = 0
KLE1 171107Z 10002KT 26/18 A2995 RMK A01 T02590177  RH  061%=      5-min Rain = 0
KLE1 171108Z 10002KT 26/18 A2995 RMK A01 T02600177  RH  060%=      5-min Rain = 0
KLE1 171109Z 11002KT 26/18 A2995 RMK A01 T02610177  RH  060%=      5-min Rain = 0
KLE1 171110Z 10003KT 26/18 A2995 RMK A01 T02610177  RH  060%=      5-min Rain = 0
KLE1 171111Z 10003KT 26/18 A2995 RMK A01 T02600177  RH  060%=      5-min Rain = 0
KLE1 171112Z 09003KT 26/18 A2995 RMK A01 T02590176  RH  060%=      5-min Rain = 0
KLE1 171113Z 09002KT 26/18 A2995 RMK A01 T02580176  RH  061%=      5-min Rain = 0
KLE1 171114Z 09002KT 26/18 A2995 RMK A01 T02570176  RH  061%=      5-min Rain = 0
KLE1 171115Z 09003KT 26/18 A2995 RMK A01 T02570176  RH  061%=      5-min Rain = 0
KLE1 171116Z 09003KT 26/18 A2995 RMK A01 T02570177  RH  061%=      5-min Rain = 0
KLE1 171117Z 09003KT 26/18 A2995 RMK A01 T02580177  RH  061%=      5-min Rain = 0
KLE1 171118Z 09003KT 26/18 A2995 RMK A01 T02570177  RH  061%=      5-min Rain = 0
KLE1 171119Z 09003KT 26/18 A2995 RMK A01 T02570177  RH  061%=      5-min Rain = 0
KLE1 171120Z 10003KT 26/18 A2995 RMK A01 T02570177  RH  061%=      5-min Rain = 0
KLE1 171121Z 11004KT 26/18 A2996 RMK A01 T02560177  RH  061%=      5-min Rain = 0
KLE1 171122Z 11004KT 26/18 A2996 RMK A01 T02550176  RH  062%=      5-min Rain = 0
KLE1 171123Z 11004KT 26/18 A2996 RMK A01 T02550177  RH  062%=      5-min Rain = 0
KLE1 171124Z 11005KT 25/18 A2995 RMK A01 T02540176  RH  062%=      5-min Rain = 0
KLE1 171125Z 11005KT 25/18 A2995 RMK A01 T02530176  RH  062%=      5-min Rain = 0
KLE1 171126Z 11005KT 25/18 A2996 RMK A01 T02520176  RH  063%=      5-min Rain = 0
KLE1 171127Z 10005KT 25/18 A2996 RMK A01 T02510176  RH  063%=      5-min Rain = 0
KLE1 171128Z 11005KT 25/18 A2996 RMK A01 T02500176  RH  063%=      5-min Rain = 0
KLE1 171129Z 10005KT 25/18 A2996 RMK A01 T02500176  RH  064%=      5-min Rain = 0
KLE1 171130Z 10005KT 25/18 A2996 RMK A01 T02490176  RH  064%=      5-min Rain = 0
KLE1 171131Z 09004KT 25/18 A2996 RMK A01 T02490176  RH  064%=      5-min Rain = 0
KLE1 171132Z 09004KT 25/18 A2996 RMK A01 T02490177  RH  064%=      5-min Rain = 0
KLE1 171133Z 09004KT 25/18 A2996 RMK A01 T02490177  RH  064%=      5-min Rain = 0
KLE1 171134Z 09004KT 25/18 A2996 RMK A01 T02490177  RH  064%=      5-min Rain = 0
KLE1 171135Z 10003KT 25/18 A2996 RMK A01 T02490177  RH  064%=      5-min Rain = 0
KLE1 171136Z 11004KT 25/18 A2996 RMK A01 T02490177  RH  064%=      5-min Rain = 0
KLE1 171137Z 10005KT 25/18 A2996 RMK A01 T02480177  RH  065%=      5-min Rain = 0
KLE1 171138Z 11004KT 25/18 A2996 RMK A01 T02500178  RH  064%=      5-min Rain = 0
KLE1 171139Z 11004KT 25/18 A2996 RMK A01 T02510178  RH  064%=      5-min Rain = 0
KLE1 171140Z 11004KT 25/18 A2996 RMK A01 T02510178  RH  064%=      5-min Rain = 0
KLE1 171141Z 11004KT 25/18 A2996 RMK A01 T02510178  RH  064%=      5-min Rain = 0
KLE1 171142Z 12004KT 25/18 A2996 RMK A01 T02500177  RH  064%=      5-min Rain = 0
KLE1 171143Z 12004KT 25/18 A2996 RMK A01 T02490178  RH  064%=      5-min Rain = 0
KLE1 171144Z 12004KT 25/18 A2996 RMK A01 T02490178  RH  065%=      5-min Rain = 0
KLE1 171145Z 12004KT 25/18 A2996 RMK A01 T02480178  RH  065%=      5-min Rain = 0
KLE1 171146Z 10003KT 25/18 A2996 RMK A01 T02480178  RH  065%=      5-min Rain = 0
KLE1 171147Z 10003KT 25/18 A2996 RMK A01 T02490178  RH  065%=      5-min Rain = 0
KLE1 171148Z 11003KT 25/18 A2996 RMK A01 T02490178  RH  065%=      5-min Rain = 0
KLE1 171149Z 12002KT 25/18 A2996 RMK A01 T02500178  RH  064%=      5-min Rain = 0
KLE1 171150Z 10002KT 25/18 A2996 RMK A01 T02500179  RH  064%=      5-min Rain = 0
KLE1 171151Z 11001KT 25/18 A2996 RMK A01 T02510179  RH  064%=      5-min Rain = 0
KLE1 171152Z 09002KT 25/18 A2996 RMK A01 T02520179  RH  064%=      5-min Rain = 0
KLE1 171153Z 11003KT 25/18 A2996 RMK A01 T02530179  RH  063%=      5-min Rain = 0
KLE1 171154Z 10003KT 25/18 A2996 RMK A01 T02530178  RH  063%=      5-min Rain = 0
KLE1 171155Z 11003KT 25/18 A2996 RMK A01 T02530178  RH  063%=      5-min Rain = 0
KLE1 171156Z 10003KT 25/18 A2996 RMK A01 T02520178  RH  064%=      5-min Rain = 0
KLE1 171157Z 09004KT 25/18 A2996 RMK A01 T02510178  RH  064%=      5-min Rain = 0
KLE1 171158Z 09003KT 25/18 A2996 RMK A01 T02510178  RH  064%=      5-min Rain = 0
KLE1 171159Z 09003KT 25/18 A2996 RMK A01 T02510178  RH  064%=      5-min Rain = 0
KLE1 171200Z 10003KT 25/18 A2996 RMK A01 T02520178  RH  064%=      5-min Rain = 0
KLE1 171201Z 10003KT 25/18 A2996 RMK A01 T02520178  RH  063%=      5-min Rain = 0
KLE1 171202Z 10003KT 25/18 A2996 RMK A01 T02520178  RH  063%=      5-min Rain = 0
KLE1 171203Z 11003KT 25/18 A2996 RMK A01 T02530178  RH  063%=      5-min Rain = 0
KLE1 171204Z 12003KT 25/18 A2996 RMK A01 T02530178  RH  063%=      5-min Rain = 0
KLE1 171205Z 12003KT 25/18 A2996 RMK A01 T02540178  RH  063%=      5-min Rain = 0
KLE1 171206Z 13003KT 25/18 A2996 RMK A01 T02540179  RH  063%=      5-min Rain = 0
KLE1 171207Z 13003KT 26/18 A2996 RMK A01 T02550179  RH  063%=      5-min Rain = 0
KLE1 171208Z 13004KT 26/18 A2996 RMK A01 T02570180  RH  062%=      5-min Rain = 0
KLE1 171209Z 14004KT 26/18 A2996 RMK A01 T02590180  RH  062%=      5-min Rain = 0
KLE1 171210Z 13004KT 26/18 A2996 RMK A01 T02590179  RH  061%=      5-min Rain = 0
KLE1 171211Z 14004KT 26/18 A2996 RMK A01 T02590179  RH  061%=      5-min Rain = 0
KLE1 171212Z 15004KT 26/18 A2996 RMK A01 T02600180  RH  061%=      5-min Rain = 0
KLE1 171213Z 15004KT 26/18 A2996 RMK A01 T02600180  RH  061%=      5-min Rain = 0
KLE1 171214Z 15004KT 26/18 A2996 RMK A01 T02600180  RH  061%=      5-min Rain = 0
KLE1 171215Z 15004KT 26/18 A2996 RMK A01 T02620181  RH  061%=      5-min Rain = 0
KLE1 171216Z 14004KT 26/18 A2996 RMK A01 T02620181  RH  061%=      5-min Rain = 0
KLE1 171217Z 14004KT 26/18 A2996 RMK A01 T02620181  RH  061%=      5-min Rain = 0
KLE1 171218Z 13004KT 26/18 A2996 RMK A01 T02620181  RH  061%=      5-min Rain = 0
KLE1 171219Z 13004KT 26/18 A2996 RMK A01 T02620181  RH  061%=      5-min Rain = 0
KLE1 171220Z 15004KT 26/18 A2996 RMK A01 T02630181  RH  061%=      5-min Rain = 0
KLE1 171221Z 13004KT 26/18 A2996 RMK A01 T02640181  RH  060%=      5-min Rain = 0
KLE1 171222Z 13003KT 27/18 A2996 RMK A01 T02660181  RH  060%=      5-min Rain = 0
KLE1 171223Z 13004KT 27/18 A2996 RMK A01 T02660181  RH  060%=      5-min Rain = 0
KLE1 171224Z 12004KT 27/18 A2996 RMK A01 T02660182  RH  060%=      5-min Rain = 0
KLE1 171225Z 13004KT 27/18 A2996 RMK A01 T02660182  RH  060%=      5-min Rain = 0
KLE1 171226Z 12004KT 27/18 A2997 RMK A01 T02660182  RH  060%=      5-min Rain = 0
KLE1 171227Z 13004KT 27/18 A2997 RMK A01 T02660182  RH  060%=      5-min Rain = 0
KLE1 171228Z 14005KT 27/18 A2997 RMK A01 T02660183  RH  060%=      5-min Rain = 0
KLE1 171229Z 14004KT 27/18 A2997 RMK A01 T02660183  RH  061%=      5-min Rain = 0
KLE1 171230Z 14005KT 27/18 A2997 RMK A01 T02660183  RH  060%=      5-min Rain = 0
KLE1 171231Z 14005KT 27/18 A2997 RMK A01 T02660183  RH  060%=      5-min Rain = 0
KLE1 171232Z 13004KT 27/18 A2997 RMK A01 T02660183  RH  060%=      5-min Rain = 0
KLE1 171233Z 13005KT 27/18 A2997 RMK A01 T02660184  RH  061%=      5-min Rain = 0
KLE1 171234Z 13005KT 27/19 A2997 RMK A01 T02660185  RH  061%=      5-min Rain = 0
KLE1 171235Z 14005KT 27/19 A2997 RMK A01 T02670185  RH  061%=      5-min Rain = 0
KLE1 171236Z 13005KT 27/19 A2997 RMK A01 T02670185  RH  061%=      5-min Rain = 0
KLE1 171237Z 13005KT 27/19 A2997 RMK A01 T02680185  RH  060%=      5-min Rain = 0
KLE1 171238Z 13005KT 27/19 A2997 RMK A01 T02680186  RH  061%=      5-min Rain = 0
KLE1 171239Z 13005KT 27/19 A2997 RMK A01 T02690186  RH  061%=      5-min Rain = 0
KLE1 171240Z 12005KT 27/19 A2997 RMK A01 T02690187  RH  061%=      5-min Rain = 0
KLE1 171241Z 12005KT 27/19 A2997 RMK A01 T02700188  RH  061%=      5-min Rain = 0
KLE1 171242Z 13006KT 27/19 A2997 RMK A01 T02700187  RH  060%=      5-min Rain = 0
KLE1 171243Z 13006KT 27/19 A2997 RMK A01 T02710187  RH  060%=      5-min Rain = 0
KLE1 171244Z 13006KT 27/19 A2997 RMK A01 T02710187  RH  060%=      5-min Rain = 0
KLE1 171245Z 13006KT 27/19 A2997 RMK A01 T02720186  RH  060%=      5-min Rain = 0
KLE1 171246Z 13006KT 27/19 A2997 RMK A01 T02720187  RH  060%=      5-min Rain = 0
KLE1 171247Z 13006KT 27/19 A2997 RMK A01 T02720187  RH  060%=      5-min Rain = 0
KLE1 171248Z 13007KT 27/19 A2997 RMK A01 T02730187  RH  059%=      5-min Rain = 0
KLE1 171249Z 13007KT 27/19 A2997 RMK A01 T02730186  RH  059%=      5-min Rain = 0
KLE1 171250Z 13006KT 27/19 A2997 RMK A01 T02740187  RH  059%=      5-min Rain = 0
KLE1 171251Z 13007KT 27/19 A2997 RMK A01 T02740187  RH  059%=      5-min Rain = 0
KLE1 171252Z 13007KT 28/19 A2997 RMK A01 T02750186  RH  058%=      5-min Rain = 0
KLE1 171253Z 13006KT 28/19 A2997 RMK A01 T02760185  RH  058%=      5-min Rain = 0
KLE1 171254Z 13005KT 28/19 A2997 RMK A01 T02760186  RH  058%=      5-min Rain = 0
KLE1 171255Z 14005KT 28/19 A2997 RMK A01 T02760186  RH  058%=      5-min Rain = 0
KLE1 171256Z 13005KT 28/19 A2997 RMK A01 T02760186  RH  058%=      5-min Rain = 0
KLE1 171257Z 14005KT 28/19 A2997 RMK A01 T02770186  RH  058%=      5-min Rain = 0
KLE1 171258Z 14005KT 28/19 A2997 RMK A01 T02770186  RH  058%=      5-min Rain = 0
KLE1 171259Z 13006KT 28/19 A2997 RMK A01 T02780186  RH  057%=      5-min Rain = 0
KLE1 171300Z 14005KT 28/19 A2997 RMK A01 T02780185  RH  057%=      5-min Rain = 0
KLE1 171301Z 14007KT 28/19 A2997 RMK A01 T02790186  RH  057%=      5-min Rain = 0
KLE1 171302Z 14007KT 28/19 A2997 RMK A01 T02780185  RH  057%=      5-min Rain = 0
KLE1 171303Z 14006KT 28/19 A2997 RMK A01 T02790186  RH  057%=      5-min Rain = 0
KLE1 171304Z 12007KT 28/19 A2997 RMK A01 T02790186  RH  057%=      5-min Rain = 0
KLE1 171305Z 12006KT 28/19 A2997 RMK A01 T02790187  RH  057%=      5-min Rain = 0
KLE1 171306Z 12006KT 28/19 A2997 RMK A01 T02790187  RH  057%=      5-min Rain = 0
KLE1 171307Z 12006KT 28/19 A2997 RMK A01 T02790189  RH  058%=      5-min Rain = 0
KLE1 171308Z 12006KT 28/19 A2997 RMK A01 T02790189  RH  058%=      5-min Rain = 0
KLE1 171309Z 12007KT 28/19 A2997 RMK A01 T02790189  RH  058%=      5-min Rain = 0
KLE1 171310Z 12006KT 28/19 A2997 RMK A01 T02780189  RH  058%=      5-min Rain = 0
KLE1 171311Z 12007KT 28/19 A2997 RMK A01 T02780188  RH  058%=      5-min Rain = 0
KLE1 171312Z 12006KT 28/19 A2997 RMK A01 T02790187  RH  058%=      5-min Rain = 0
KLE1 171313Z 12006KT 28/19 A2997 RMK A01 T02790188  RH  058%=      5-min Rain = 0
KLE1 171314Z 12006KT 28/19 A2997 RMK A01 T02790188  RH  058%=      5-min Rain = 0
KLE1 171315Z 12007KT 28/19 A2997 RMK A01 T02790189  RH  058%=      5-min Rain = 0
KLE1 171316Z 12007KT 28/19 A2997 RMK A01 T02790188  RH  058%=      5-min Rain = 0
KLE1 171317Z 12006KT 28/19 A2997 RMK A01 T02780189  RH  058%=      5-min Rain = 0
KLE1 171318Z 11005KT 28/19 A2997 RMK A01 T02780188  RH  058%=      5-min Rain = 0
KLE1 171319Z 11006KT 28/19 A2998 RMK A01 T02790190  RH  058%=      5-min Rain = 0
KLE1 171320Z 11007KT 28/19 A2998 RMK A01 T02790189  RH  058%=      5-min Rain = 0
KLE1 171321Z 12007KT 28/19 A2998 RMK A01 T02790188  RH  058%=      5-min Rain = 0
KLE1 171322Z 12006KT 28/19 A2998 RMK A01 T02790189  RH  058%=      5-min Rain = 0
KLE1 171323Z 12005KT 28/19 A2998 RMK A01 T02790190  RH  058%=      5-min Rain = 0
KLE1 171324Z 12004KT 28/19 A2998 RMK A01 T02790189  RH  058%=      5-min Rain = 0
KLE1 171325Z 11004KT 28/19 A2998 RMK A01 T02800189  RH  058%=      5-min Rain = 0
KLE1 171326Z 12005KT 28/19 A2998 RMK A01 T02800190  RH  058%=      5-min Rain = 0
KLE1 171327Z 12005KT 28/19 A2998 RMK A01 T02800190  RH  058%=      5-min Rain = 0
KLE1 171328Z 12005KT 28/19 A2998 RMK A01 T02810189  RH  057%=      5-min Rain = 0
KLE1 171329Z 11004KT 28/19 A2998 RMK A01 T02810189  RH  057%=      5-min Rain = 0
KLE1 171330Z 10003KT 28/19 A2998 RMK A01 T02810188  RH  057%=      5-min Rain = 0
KLE1 171331Z 11004KT 28/19 A2998 RMK A01 T02820190  RH  057%=      5-min Rain = 0
KLE1 171332Z 11006KT 28/19 A2998 RMK A01 T02830190  RH  057%=      5-min Rain = 0
KLE1 171333Z 11005KT 28/19 A2998 RMK A01 T02830188  RH  056%=      5-min Rain = 0
KLE1 171334Z 11006KT 28/19 A2998 RMK A01 T02840190  RH  057%=      5-min Rain = 0
KLE1 171335Z 11006KT 28/19 A2998 RMK A01 T02840189  RH  056%=      5-min Rain = 0
KLE1 171336Z 11006KT 28/19 A2998 RMK A01 T02830189  RH  057%=      5-min Rain = 0
KLE1 171337Z 10006KT 28/19 A2998 RMK A01 T02830190  RH  057%=      5-min Rain = 0
KLE1 171338Z 12006KT 28/19 A2998 RMK A01 T02840190  RH  057%=      5-min Rain = 0
KLE1 171339Z 12006KT 28/19 A2998 RMK A01 T02840189  RH  056%=      5-min Rain = 0
KLE1 171340Z 10006KT 28/19 A2998 RMK A01 T02840189  RH  056%=      5-min Rain = 0
KLE1 171341Z 11005KT 28/19 A2998 RMK A01 T02830190  RH  057%=      5-min Rain = 0
KLE1 171342Z 13004KT 28/19 A2999 RMK A01 T02830190  RH  057%=      5-min Rain = 0
KLE1 171343Z 13004KT 28/19 A2999 RMK A01 T02840191  RH  057%=      5-min Rain = 0
KLE1 171344Z 12004KT 29/19 A2999 RMK A01 T02850192  RH  057%=      5-min Rain = 0
KLE1 171345Z 13004KT 29/19 A2999 RMK A01 T02860191  RH  056%=      5-min Rain = 0
KLE1 171346Z 12004KT 29/19 A2999 RMK A01 T02860191  RH  056%=      5-min Rain = 0
KLE1 171347Z 11003KT 29/19 A2999 RMK A01 T02860189  RH  056%=      5-min Rain = 0
KLE1 171348Z 15004KT 29/19 A2999 RMK A01 T02850191  RH  056%=      5-min Rain = 0
KLE1 171349Z 14005KT 29/19 A2999 RMK A01 T02860191  RH  057%=      5-min Rain = 0
KLE1 171350Z 16005KT 29/19 A2999 RMK A01 T02870191  RH  056%=      5-min Rain = 0
KLE1 171351Z 17004KT 29/19 A2999 RMK A01 T02880191  RH  056%=      5-min Rain = 0
KLE1 171352Z 15005KT 29/19 A2999 RMK A01 T02900192  RH  055%=      5-min Rain = 0
KLE1 171353Z 16004KT 29/19 A2999 RMK A01 T02910192  RH  055%=      5-min Rain = 0
KLE1 171354Z 17004KT 29/19 A2999 RMK A01 T02910191  RH  055%=      5-min Rain = 0
KLE1 171355Z 19004KT 29/19 A2999 RMK A01 T02910191  RH  055%=      5-min Rain = 0
KLE1 171356Z 16006KT 29/19 A2999 RMK A01 T02910192  RH  055%=      5-min Rain = 0
KLE1 171357Z 17005KT 29/19 A2999 RMK A01 T02920192  RH  055%=      5-min Rain = 0
KLE1 171358Z 18006KT 29/19 A2999 RMK A01 T02930192  RH  055%=      5-min Rain = 0
KLE1 171359Z 17004KT 29/19 A2999 RMK A01 T02930191  RH  054%=      5-min Rain = 0
KLE1 171400Z 16005KT 29/19 A2999 RMK A01 T02920192  RH  055%=      5-min Rain = 0
KLE1 171401Z 15005KT 29/19 A2999 RMK A01 T02920192  RH  055%=      5-min Rain = 0
KLE1 171402Z 15006KT 29/19 A2999 RMK A01 T02930193  RH  055%=      5-min Rain = 0
KLE1 171403Z 15006KT 29/19 A2999 RMK A01 T02940192  RH  054%=      5-min Rain = 0
KLE1 171404Z 13003KT 29/19 A2999 RMK A01 T02940193  RH  055%=      5-min Rain = 0
KLE1 171405Z 15004KT 30/19 A2999 RMK A01 T02950193  RH  054%=      5-min Rain = 0
KLE1 171406Z 16006KT 30/19 A2999 RMK A01 T02960193  RH  054%=      5-min Rain = 0
KLE1 171407Z 15004KT 30/19 A2999 RMK A01 T02960193  RH  054%=      5-min Rain = 0
KLE1 171408Z 14006KT 30/19 A2999 RMK A01 T02950193  RH  054%=      5-min Rain = 0
KLE1 171409Z 15006KT 30/19 A2999 RMK A01 T02950194  RH  054%=      5-min Rain = 0
KLE1 171410Z 15006KT 30/20 A2999 RMK A01 T02950195  RH  055%=      5-min Rain = 0
KLE1 171411Z 14005KT 30/19 A2999 RMK A01 T02960193  RH  054%=      5-min Rain = 0
KLE1 171412Z 17005KT 30/20 A2999 RMK A01 T02960195  RH  055%=      5-min Rain = 0
KLE1 171413Z 18006KT 30/20 A2999 RMK A01 T02970195  RH  054%=      5-min Rain = 0
KLE1 171414Z 18007KT 30/20 A2999 RMK A01 T02990196  RH  054%=      5-min Rain = 0
KLE1 171415Z 19008KT 30/20 A2999 RMK A01 T03020197  RH  053%=      5-min Rain = 0
KLE1 171416Z 18010KT 31/20 A2999 RMK A01 T03050196  RH  052%=      5-min Rain = 0
KLE1 171417Z 18008KT 31/20 A2999 RMK A01 T03050195  RH  052%=      5-min Rain = 0
KLE1 171418Z 19007KT 31/20 A2998 RMK A01 T03050196  RH  052%=      5-min Rain = 0
KLE1 171419Z 19007KT 31/20 A2998 RMK A01 T03050197  RH  052%=      5-min Rain = 0
KLE1 171420Z 19008KT 31/20 A2998 RMK A01 T03070197  RH  052%=      5-min Rain = 0
KLE1 171421Z 19008KT 31/20 A2998 RMK A01 T03080197  RH  052%=      5-min Rain = 0
KLE1 171422Z 20011KT 31/20 A2998 RMK A01 T03100197  RH  051%=      5-min Rain = 0
KLE1 171423Z 19010KT 31/20 A2998 RMK A01 T03120195  RH  050%=      5-min Rain = 0
KLE1 171424Z 19012KT 31/20 A2998 RMK A01 T03130195  RH  049%=      5-min Rain = 0
KLE1 171425Z 20011KT 31/19 A2998 RMK A01 T03140194  RH  049%=      5-min Rain = 0
KLE1 171426Z 20010KT 32/19 A2998 RMK A01 T03150194  RH  049%=      5-min Rain = 0
KLE1 171427Z 20010KT 32/19 A2998 RMK A01 T03150194  RH  049%=      5-min Rain = 0
KLE1 171428Z 20011KT 32/20 A2998 RMK A01 T03150195  RH  049%=      5-min Rain = 0
KLE1 171429Z 20009G14KT 32/20 A2998 RMK A01 T03160196  RH  049%=      5-min Rain = 0
KLE1 171430Z 20010KT 32/19 A2998 RMK A01 T03170194  RH  048%=      5-min Rain = 0
KLE1 171431Z 20014KT 32/19 A2998 RMK A01 T03170193  RH  048%=      5-min Rain = 0
KLE1 171432Z 21011KT 32/19 A2998 RMK A01 T03170192  RH  048%=      5-min Rain = 0
KLE1 171433Z 21011KT 32/19 A2998 RMK A01 T03180194  RH  048%=      5-min Rain = 0
KLE1 171434Z 20010KT 32/19 A2998 RMK A01 T03180193  RH  048%=      5-min Rain = 0
KLE1 171435Z 19011KT 32/20 A2998 RMK A01 T03180195  RH  048%=      5-min Rain = 0
KLE1 171436Z 20013KT 32/19 A2998 RMK A01 T03190194  RH  048%=      5-min Rain = 0
KLE1 171437Z 20012KT 32/19 A2998 RMK A01 T03190193  RH  047%=      5-min Rain = 0
KLE1 171438Z 21013KT 32/19 A2998 RMK A01 T03190194  RH  048%=      5-min Rain = 0
KLE1 171439Z 22013KT 32/19 A2998 RMK A01 T03200194  RH  047%=      5-min Rain = 0
KLE1 171440Z 22012KT 32/19 A2998 RMK A01 T03210191  RH  046%=      5-min Rain = 0
KLE1 171441Z 21013G18KT 32/19 A2998 RMK A01 T03200193  RH  047%=      5-min Rain = 0
KLE1 171442Z 22015KT 32/19 A2998 RMK A01 T03200191  RH  047%=      5-min Rain = 0
KLE1 171443Z 21014KT 32/19 A2998 RMK A01 T03200192  RH  047%=      5-min Rain = 0
KLE1 171444Z 21014KT 32/19 A2998 RMK A01 T03200191  RH  046%=      5-min Rain = 0
KLE1 171445Z 22011KT 32/19 A2998 RMK A01 T03200190  RH  046%=      5-min Rain = 0
KLE1 171446Z 21010KT 32/19 A2998 RMK A01 T03190191  RH  047%=      5-min Rain = 0
KLE1 171447Z 21012KT 32/19 A2998 RMK A01 T03200194  RH  047%=      5-min Rain = 0
KLE1 171448Z 20012KT 32/19 A2998 RMK A01 T03220193  RH  046%=      5-min Rain = 0
KLE1 171449Z 21015KT 32/19 A2998 RMK A01 T03230193  RH  046%=      5-min Rain = 0
KLE1 171450Z 21012KT 32/19 A2998 RMK A01 T03230191  RH  046%=      5-min Rain = 0
KLE1 171451Z 21012KT 32/19 A2998 RMK A01 T03220192  RH  046%=      5-min Rain = 0
KLE1 171452Z 20014KT 32/19 A2998 RMK A01 T03230192  RH  046%=      5-min Rain = 0
KLE1 171453Z 21015KT 32/19 A2998 RMK A01 T03230192  RH  046%=      5-min Rain = 0
KLE1 171454Z 21015KT 32/19 A2998 RMK A01 T03220191  RH  046%=      5-min Rain = 0
KLE1 171455Z 21014KT 32/19 A2998 RMK A01 T03220191  RH  046%=      5-min Rain = 0
KLE1 171456Z 21013KT 32/19 A2998 RMK A01 T03220192  RH  046%=      5-min Rain = 0
KLE1 171457Z 21011KT 32/19 A2998 RMK A01 T03230192  RH  046%=      5-min Rain = 0
KLE1 171458Z 22011KT 32/19 A2998 RMK A01 T03230191  RH  046%=      5-min Rain = 0
KLE1 171459Z 22009KT 32/19 A2998 RMK A01 T03220191  RH  046%=      5-min Rain = 0
KLE1 171500Z 23011G16KT 32/19 A2998 RMK A01 T03220192  RH  046%=      5-min Rain = 0
KLE1 171501Z 22013KT 32/19 A2998 RMK A01 T03240191  RH  045%=      5-min Rain = 0
KLE1 171502Z 22012KT 32/19 A2998 RMK A01 T03240191  RH  045%=      5-min Rain = 0
KLE1 171503Z 22011KT 32/19 A2998 RMK A01 T03240191  RH  046%=      5-min Rain = 0
KLE1 171504Z 23012KT 33/19 A2998 RMK A01 T03250192  RH  045%=      5-min Rain = 0
KLE1 171505Z 22012KT 33/19 A2998 RMK A01 T03260192  RH  045%=      5-min Rain = 0
KLE1 171506Z 22013KT 33/19 A2998 RMK A01 T03280192  RH  045%=      5-min Rain = 0
KLE1 171507Z 22011KT 33/19 A2998 RMK A01 T03280192  RH  045%=      5-min Rain = 0
KLE1 171508Z 23010KT 33/19 A2998 RMK A01 T03280191  RH  045%=      5-min Rain = 0
KLE1 171509Z 22011KT 33/19 A2998 RMK A01 T03290191  RH  044%=      5-min Rain = 0
KLE1 171510Z 21013KT 33/19 A2998 RMK A01 T03300190  RH  044%=      5-min Rain = 0
KLE1 171511Z 20014KT 33/19 A2998 RMK A01 T03290190  RH  044%=      5-min Rain = 0
KLE1 171512Z 20011KT 33/19 A2998 RMK A01 T03290190  RH  044%=      5-min Rain = 0
KLE1 171513Z 19010KT 33/19 A2998 RMK A01 T03290190  RH  044%=      5-min Rain = 0
KLE1 171514Z 21013KT 33/19 A2998 RMK A01 T03300191  RH  044%=      5-min Rain = 0
KLE1 171515Z 21011KT 33/19 A2998 RMK A01 T03300188  RH  043%=      5-min Rain = 0
KLE1 171516Z 20011KT 33/19 A2998 RMK A01 T03300189  RH  043%=      5-min Rain = 0
KLE1 171517Z 19007KT 33/19 A2998 RMK A01 T03290189  RH  044%=      5-min Rain = 0
KLE1 171518Z 21008KT 33/19 A2998 RMK A01 T03300193  RH  044%=      5-min Rain = 0
KLE1 171519Z 21011KT 33/19 A2998 RMK A01 T03310191  RH  044%=      5-min Rain = 0
KLE1 171520Z 21012KT 33/19 A2998 RMK A01 T03320191  RH  043%=      5-min Rain = 0
KLE1 171521Z 21009KT 33/19 A2998 RMK A01 T03340191  RH  043%=      5-min Rain = 0
KLE1 171522Z 20011KT 33/19 A2998 RMK A01 T03330191  RH  043%=      5-min Rain = 0
KLE1 171523Z 19012KT 33/19 A2998 RMK A01 T03340192  RH  043%=      5-min Rain = 0
KLE1 171524Z 19009KT 33/19 A2998 RMK A01 T03320190  RH  043%=      5-min Rain = 0
KLE1 171525Z 20009KT 33/19 A2998 RMK A01 T03310190  RH  043%=      5-min Rain = 0
KLE1 171526Z 24006KT 33/19 A2998 RMK A01 T03310192  RH  044%=      5-min Rain = 0
KLE1 171527Z 24008KT 33/19 A2998 RMK A01 T03330191  RH  043%=      5-min Rain = 0
KLE1 171528Z 22008KT 34/19 A2998 RMK A01 T03370192  RH  042%=      5-min Rain = 0
KLE1 171529Z 22008KT 34/19 A2998 RMK A01 T03390193  RH  042%=      5-min Rain = 0
KLE1 171530Z 21013KT 34/19 A2998 RMK A01 T03410189  RH  041%=      5-min Rain = 0
KLE1 171531Z 22011KT 34/19 A2998 RMK A01 T03400187  RH  040%=      5-min Rain = 0
KLE1 171532Z 22012KT 34/19 A2998 RMK A01 T03380187  RH  041%=      5-min Rain = 0
KLE1 171533Z 22010KT 34/19 A2998 RMK A01 T03390188  RH  041%=      5-min Rain = 0
KLE1 171534Z 22012KT 34/19 A2998 RMK A01 T03390188  RH  041%=      5-min Rain = 0
KLE1 171535Z 22011KT 34/19 A2998 RMK A01 T03390188  RH  041%=      5-min Rain = 0
KLE1 171536Z 23009KT 34/19 A2998 RMK A01 T03380186  RH  041%=      5-min Rain = 0
KLE1 171537Z 23009KT 34/19 A2998 RMK A01 T03360188  RH  042%=      5-min Rain = 0
KLE1 171538Z 20009KT 34/19 A2998 RMK A01 T03380188  RH  041%=      5-min Rain = 0
KLE1 171539Z 20008KT 34/19 A2998 RMK A01 T03380189  RH  042%=      5-min Rain = 0
KLE1 171540Z 20011KT 34/19 A2998 RMK A01 T03400191  RH  042%=      5-min Rain = 0
KLE1 171541Z 19013KT 34/19 A2998 RMK A01 T03410190  RH  041%=      5-min Rain = 0
KLE1 171542Z 20013KT 34/19 A2998 RMK A01 T03420189  RH  041%=      5-min Rain = 0
KLE1 171543Z 20010KT 34/19 A2998 RMK A01 T03430192  RH  041%=      5-min Rain = 0
KLE1 171544Z 20012KT 35/19 A2998 RMK A01 T03460189  RH  040%=      5-min Rain = 0
KLE1 171545Z 21011KT 35/19 A2998 RMK A01 T03450187  RH  039%=      5-min Rain = 0
KLE1 171546Z 20012KT 34/19 A2998 RMK A01 T03430186  RH  040%=      5-min Rain = 0
KLE1 171547Z 21013KT 34/19 A2998 RMK A01 T03420185  RH  040%=      5-min Rain = 0
KLE1 171548Z 21011G16KT 34/19 A2998 RMK A01 T03410186  RH  040%=      5-min Rain = 0
KLE1 171549Z 21010KT 34/19 A2998 RMK A01 T03430187  RH  040%=      5-min Rain = 0
KLE1 171550Z 20012KT 35/19 A2998 RMK A01 T03460189  RH  040%=      5-min Rain = 0
KLE1 171551Z 19012KT 35/19 A2998 RMK A01 T03470187  RH  039%=      5-min Rain = 0
KLE1 171552Z 19010KT 35/19 A2998 RMK A01 T03450188  RH  040%=      5-min Rain = 0
KLE1 171553Z 20009KT 34/19 A2998 RMK A01 T03440190  RH  040%=      5-min Rain = 0
KLE1 171554Z 21010KT 35/19 A2998 RMK A01 T03450190  RH  040%=      5-min Rain = 0
KLE1 171555Z 20011KT 35/19 A2997 RMK A01 T03470189  RH  039%=      5-min Rain = 0
KLE1 171556Z 20012KT 35/19 A2997 RMK A01 T03470187  RH  039%=      5-min Rain = 0
KLE1 171557Z 20011KT 35/18 A2997 RMK A01 T03480184  RH  038%=      5-min Rain = 0
KLE1 171558Z 22011KT 35/19 A2997 RMK A01 T03460187  RH  039%=      5-min Rain = 0
KLE1 171559Z 22008KT 35/19 A2998 RMK A01 T03480188  RH  039%=      5-min Rain = 0
KLE1 171600Z 22010KT 35/19 A2997 RMK A01 T03490189  RH  039%=      5-min Rain = 0
KLE1 171601Z 21010KT 35/19 A2997 RMK A01 T03490186  RH  038%=      5-min Rain = 0
KLE1 171602Z 20013KT 35/19 A2997 RMK A01 T03490187  RH  039%=      5-min Rain = 0
KLE1 171603Z 20012KT 35/19 A2997 RMK A01 T03500187  RH  038%=      5-min Rain = 0
KLE1 171604Z 19012KT 35/19 A2997 RMK A01 T03510185  RH  038%=      5-min Rain = 0
KLE1 171605Z 20014KT 35/19 A2997 RMK A01 T03490186  RH  038%=      5-min Rain = 0
KLE1 171606Z 20011KT 35/19 A2997 RMK A01 T03480185  RH  038%=      5-min Rain = 0
KLE1 171607Z 21011KT 35/19 A2997 RMK A01 T03460186  RH  039%=      5-min Rain = 0
KLE1 171608Z 20014KT 35/19 A2997 RMK A01 T03480185  RH  038%=      5-min Rain = 0
KLE1 171609Z 21012KT 35/19 A2997 RMK A01 T03490185  RH  038%=      5-min Rain = 0
KLE1 171610Z 20011KT 35/19 A2997 RMK A01 T03480185  RH  038%=      5-min Rain = 0
KLE1 171611Z 20010KT 35/19 A2997 RMK A01 T03470185  RH  039%=      5-min Rain = 0
KLE1 171612Z 18011KT 35/19 A2997 RMK A01 T03470188  RH  039%=      5-min Rain = 0
KLE1 171613Z 19009KT 35/19 A2997 RMK A01 T03470190  RH  040%=      5-min Rain = 0
KLE1 171614Z 21009KT 35/19 A2997 RMK A01 T03500190  RH  039%=      5-min Rain = 0
KLE1 171615Z 21008KT 35/19 A2997 RMK A01 T03500190  RH  039%=      5-min Rain = 0
KLE1 171616Z 19010KT 35/19 A2997 RMK A01 T03500189  RH  039%=      5-min Rain = 0
KLE1 171617Z 19009KT 35/19 A2997 RMK A01 T03500188  RH  039%=      5-min Rain = 0
KLE1 171618Z 21007KT 35/19 A2997 RMK A01 T03490191  RH  039%=      5-min Rain = 0
KLE1 171619Z 19010KT 35/19 A2997 RMK A01 T03530192  RH  039%=      5-min Rain = 0
KLE1 171620Z 18010KT 36/19 A2997 RMK A01 T03550190  RH  038%=      5-min Rain = 0
KLE1 171621Z 19013KT 36/19 A2997 RMK A01 T03560190  RH  038%=      5-min Rain = 0
KLE1 171622Z 19012KT 36/19 A2997 RMK A01 T03560189  RH  038%=      5-min Rain = 0
KLE1 171623Z 20012KT 36/19 A2997 RMK A01 T03560189  RH  037%=      5-min Rain = 0
KLE1 171624Z 20014KT 36/19 A2997 RMK A01 T03600189  RH  037%=      5-min Rain = 0
KLE1 171625Z 20014KT 36/19 A2997 RMK A01 T03570186  RH  037%=      5-min Rain = 0
KLE1 171626Z 20011KT 35/19 A2997 RMK A01 T03540185  RH  037%=      5-min Rain = 0
KLE1 171627Z 19013KT 35/19 A2997 RMK A01 T03530188  RH  038%=      5-min Rain = 0
KLE1 171628Z 19013KT 35/19 A2997 RMK A01 T03530188  RH  038%=      5-min Rain = 0
KLE1 171629Z 19014KT 35/19 A2997 RMK A01 T03520187  RH  038%=      5-min Rain = 0
KLE1 171630Z 18013KT 35/19 A2997 RMK A01 T03500187  RH  038%=      5-min Rain = 0
KLE1 171631Z 18013KT 35/19 A2997 RMK A01 T03500188  RH  038%=      5-min Rain = 0
KLE1 171632Z 18012KT 35/19 A2997 RMK A01 T03520189  RH  038%=      5-min Rain = 0
KLE1 171633Z 19010KT 35/19 A2997 RMK A01 T03520187  RH  038%=      5-min Rain = 0
KLE1 171634Z 18007KT 35/19 A2997 RMK A01 T03510188  RH  038%=      5-min Rain = 0
KLE1 171635Z 18011KT 35/19 A2997 RMK A01 T03520188  RH  038%=      5-min Rain = 0
KLE1 171636Z 19010KT 36/19 A2997 RMK A01 T03550190  RH  038%=      5-min Rain = 0
KLE1 171637Z 21011KT 36/19 A2997 RMK A01 T03610192  RH  037%=      5-min Rain = 0
KLE1 171638Z 21011KT 36/19 A2997 RMK A01 T03620190  RH  037%=      5-min Rain = 0
KLE1 171639Z 21011KT 36/19 A2997 RMK A01 T03600189  RH  037%=      5-min Rain = 0
KLE1 171640Z 20008KT 36/19 A2997 RMK A01 T03590190  RH  037%=      5-min Rain = 0
KLE1 171641Z 21011G16KT 36/19 A2997 RMK A01 T03580190  RH  037%=      5-min Rain = 0
KLE1 171642Z 21013KT 36/18 A2997 RMK A01 T03580184  RH  036%=      5-min Rain = 0
KLE1 171643Z 19012KT 36/19 A2997 RMK A01 T03570186  RH  037%=      5-min Rain = 0
KLE1 171644Z 19014KT 36/18 A2997 RMK A01 T03580182  RH  036%=      5-min Rain = 0
KLE1 171645Z 20014KT 36/18 A2997 RMK A01 T03570183  RH  036%=      5-min Rain = 0
KLE1 171646Z 19014G19KT 36/18 A2997 RMK A01 T03560183  RH  036%=      5-min Rain = 0
KLE1 171647Z 19014KT 36/18 A2997 RMK A01 T03560183  RH  036%=      5-min Rain = 0
KLE1 171648Z 19011KT 36/18 A2997 RMK A01 T03560182  RH  036%=      5-min Rain = 0
KLE1 171649Z 18014KT 36/18 A2997 RMK A01 T03570184  RH  036%=      5-min Rain = 0
KLE1 171650Z 18015KT 36/18 A2997 RMK A01 T03600182  RH  035%=      5-min Rain = 0
KLE1 171651Z 18012KT 36/18 A2997 RMK A01 T03610181  RH  035%=      5-min Rain = 0
KLE1 171652Z 19015KT 36/18 A2997 RMK A01 T03600181  RH  035%=      5-min Rain = 0
KLE1 171653Z 19013KT 36/18 A2996 RMK A01 T03600180  RH  035%=      5-min Rain = 0
KLE1 171654Z 20015KT 36/18 A2996 RMK A01 T03610181  RH  035%=      5-min Rain = 0
KLE1 171655Z 19013G18KT 36/18 A2996 RMK A01 T03610183  RH  035%=      5-min Rain = 0
KLE1 171656Z 18018KT 36/18 A2996 RMK A01 T03620179  RH  034%=      5-min Rain = 0
KLE1 171657Z 19017KT 36/18 A2996 RMK A01 T03620176  RH  033%=      5-min Rain = 0
KLE1 171658Z 18014G19KT 36/18 A2996 RMK A01 T03630177  RH  034%=      5-min Rain = 0
KLE1 171659Z 18015KT 37/18 A2996 RMK A01 T03650176  RH  033%=      5-min Rain = 0
KLE1 171700Z 18013KT 36/18 A2996 RMK A01 T03630177  RH  033%=      5-min Rain = 0
KLE1 171701Z 18011KT 36/18 A2996 RMK A01 T03620180  RH  034%=      5-min Rain = 0
KLE1 171702Z 17016KT 37/18 A2996 RMK A01 T03650182  RH  034%=      5-min Rain = 0
KLE1 171703Z 17016KT 37/18 A2996 RMK A01 T03650178  RH  033%=      5-min Rain = 0
KLE1 171704Z 18014KT 37/18 A2996 RMK A01 T03650180  RH  034%=      5-min Rain = 0
KLE1 171705Z 18013KT 37/18 A2996 RMK A01 T03650183  RH  034%=      5-min Rain = 0
KLE1 171706Z 18016KT 37/18 A2996 RMK A01 T03650180  RH  034%=      5-min Rain = 0
KLE1 171707Z 18013KT 36/18 A2996 RMK A01 T03620177  RH  034%=      5-min Rain = 0
KLE1 171708Z 17015KT 36/18 A2996 RMK A01 T03610179  RH  034%=      5-min Rain = 0
KLE1 171709Z 18017KT 36/18 A2996 RMK A01 T03640180  RH  034%=      5-min Rain = 0
KLE1 171710Z 17013KT 36/18 A2996 RMK A01 T03640180  RH  034%=      5-min Rain = 0
KLE1 171711Z 18013G18KT 36/18 A2996 RMK A01 T03620179  RH  034%=      5-min Rain = 0
KLE1 171712Z 17014KT 36/18 A2996 RMK A01 T03620178  RH  034%=      5-min Rain = 0
KLE1 171713Z 17014KT 36/18 A2996 RMK A01 T03600176  RH  034%=      5-min Rain = 0
KLE1 171714Z 18018G23KT 36/18 A2996 RMK A01 T03590176  RH  034%=      5-min Rain = 0
KLE1 171715Z 18018KT 36/18 A2996 RMK A01 T03600177  RH  034%=      5-min Rain = 0
KLE1 171716Z 18015KT 36/18 A2996 RMK A01 T03600180  RH  035%=      5-min Rain = 0
KLE1 171717Z 18017KT 36/18 A2996 RMK A01 T03640181  RH  034%=      5-min Rain = 0
KLE1 171718Z 18015KT 37/18 A2996 RMK A01 T03650181  RH  034%=      5-min Rain = 0
KLE1 171719Z 17013KT 36/18 A2996 RMK A01 T03640180  RH  034%=      5-min Rain = 0
KLE1 171720Z 18014KT 36/18 A2996 RMK A01 T03640181  RH  034%=      5-min Rain = 0
KLE1 171721Z 18014KT 37/18 A2996 RMK A01 T03660183  RH  034%=      5-min Rain = 0
KLE1 171722Z 19014KT 37/18 A2996 RMK A01 T03700183  RH  034%=      5-min Rain = 0
KLE1 171723Z 18012KT 37/18 A2996 RMK A01 T03710182  RH  033%=      5-min Rain = 0
KLE1 171724Z 19014KT 37/18 A2996 RMK A01 T03700182  RH  033%=      5-min Rain = 0
KLE1 171725Z 20015KT 37/18 A2996 RMK A01 T03700182  RH  033%=      5-min Rain = 0
KLE1 171726Z 20017KT 37/18 A2996 RMK A01 T03710177  RH  032%=      5-min Rain = 0
KLE1 171727Z 20016KT 37/18 A2996 RMK A01 T03700177  RH  032%=      5-min Rain = 0
KLE1 171728Z 20015KT 37/18 A2996 RMK A01 T03690177  RH  032%=      5-min Rain = 0
KLE1 171729Z 17014KT 37/18 A2996 RMK A01 T03700179  RH  033%=      5-min Rain = 0
KLE1 171730Z 18015G21KT 37/18 A2996 RMK A01 T03720178  RH  032%=      5-min Rain = 0
KLE1 171731Z 16012G17KT 37/18 A2996 RMK A01 T03720179  RH  032%=      5-min Rain = 0
KLE1 171732Z 17017KT 37/18 A2996 RMK A01 T03730179  RH  032%=      5-min Rain = 0
KLE1 171733Z 17017KT 37/18 A2996 RMK A01 T03720176  RH  032%=      5-min Rain = 0
KLE1 171734Z 17016KT 37/17 A2996 RMK A01 T03680172  RH  032%=      5-min Rain = 0
KLE1 171735Z 18016KT 37/18 A2996 RMK A01 T03660175  RH  032%=      5-min Rain = 0
KLE1 171736Z 17015KT 37/18 A2996 RMK A01 T03650175  RH  033%=      5-min Rain = 0
KLE1 171737Z 16014KT 37/18 A2996 RMK A01 T03660175  RH  033%=      5-min Rain = 0
KLE1 171738Z 17017G22KT 37/18 A2996 RMK A01 T03710177  RH  032%=      5-min Rain = 0
KLE1 171739Z 18018KT 37/17 A2996 RMK A01 T03740173  RH  031%=      5-min Rain = 0
KLE1 171740Z 18018KT 37/17 A2996 RMK A01 T03720172  RH  031%=      5-min Rain = 0
KLE1 171741Z 19019KT 37/17 A2996 RMK A01 T03730172  RH  031%=      5-min Rain = 0
KLE1 171742Z 20014KT 38/17 A2996 RMK A01 T03750172  RH  030%=      5-min Rain = 0
KLE1 171743Z 20013KT 38/17 A2996 RMK A01 T03750171  RH  030%=      5-min Rain = 0
KLE1 171744Z 19016KT 37/17 A2996 RMK A01 T03740170  RH  030%=      5-min Rain = 0
KLE1 171745Z 17018KT 37/17 A2996 RMK A01 T03740168  RH  030%=      5-min Rain = 0
KLE1 171746Z 17018KT 37/17 A2996 RMK A01 T03730167  RH  030%=      5-min Rain = 0
KLE1 171747Z 19016KT 37/17 A2996 RMK A01 T03730165  RH  029%=      5-min Rain = 0
KLE1 171748Z 17012KT 37/17 A2996 RMK A01 T03710166  RH  030%=      5-min Rain = 0
KLE1 171749Z 16011KT 37/17 A2996 RMK A01 T03730169  RH  030%=      5-min Rain = 0
KLE1 171750Z 17014KT 37/17 A2996 RMK A01 T03730166  RH  030%=      5-min Rain = 0
KLE1 171751Z 18014G19KT 38/17 A2996 RMK A01 T03750168  RH  030%=      5-min Rain = 0
KLE1 171752Z 19014KT 38/17 A2996 RMK A01 T03780169  RH  029%=      5-min Rain = 0
KLE1 171753Z 17013KT 38/17 A2996 RMK A01 T03790170  RH  029%=      5-min Rain = 0
KLE1 171754Z 17012KT 38/17 A2996 RMK A01 T03780169  RH  029%=      5-min Rain = 0
KLE1 171755Z 16013KT 38/17 A2996 RMK A01 T03770167  RH  029%=      5-min Rain = 0
KLE1 171756Z 18015KT 38/16 A2996 RMK A01 T03780162  RH  028%=      5-min Rain = 0
KLE1 171757Z 19014KT 38/16 A2996 RMK A01 T03780163  RH  028%=      5-min Rain = 0
KLE1 171758Z 19013KT 38/16 A2996 RMK A01 T03780158  RH  027%=      5-min Rain = 0
KLE1 171759Z 19012KT 38/16 A2996 RMK A01 T03760157  RH  027%=      5-min Rain = 0
KLE1 171800Z 19015KT 38/16 A2996 RMK A01 T03760160  RH  028%=      5-min Rain = 0
KLE1 171801Z 19013KT 38/16 A2996 RMK A01 T03760161  RH  028%=      5-min Rain = 0
KLE1 171802Z 18015KT 38/16 A2996 RMK A01 T03770159  RH  028%=      5-min Rain = 0
KLE1 171803Z 18014KT 38/15 A2996 RMK A01 T03760154  RH  027%=      5-min Rain = 0
KLE1 171804Z 16015KT 38/15 A2996 RMK A01 T03760152  RH  027%=      5-min Rain = 0
KLE1 171805Z 17017KT 38/15 A2996 RMK A01 T03760149  RH  026%=      5-min Rain = 0
KLE1 171806Z 17016KT 38/15 A2996 RMK A01 T03750148  RH  026%=      5-min Rain = 0
KLE1 171807Z 17016KT 38/16 A2996 RMK A01 T03750159  RH  028%=      5-min Rain = 0
KLE1 171808Z 17018KT 38/16 A2996 RMK A01 T03750164  RH  029%=      5-min Rain = 0
KLE1 171809Z 17014KT 37/16 A2996 RMK A01 T03740162  RH  029%=      5-min Rain = 0
KLE1 171810Z 17013KT 38/16 A2995 RMK A01 T03750163  RH  029%=      5-min Rain = 0
KLE1 171811Z 19009KT 37/16 A2995 RMK A01 T03740161  RH  028%=      5-min Rain = 0
KLE1 171812Z 17018KT 37/16 A2995 RMK A01 T03740162  RH  029%=      5-min Rain = 0
KLE1 171813Z 18016KT 38/16 A2995 RMK A01 T03780155  RH  027%=      5-min Rain = 0
KLE1 171814Z 19017KT 38/15 A2995 RMK A01 T03800146  RH  025%=      5-min Rain = 0
KLE1 171815Z 18014KT 38/14 A2995 RMK A01 T03790144  RH  025%=      5-min Rain = 0
KLE1 171816Z 18012KT 38/15 A2995 RMK A01 T03770146  RH  025%=      5-min Rain = 0
KLE1 171817Z 18013KT 38/15 A2995 RMK A01 T03780153  RH  026%=      5-min Rain = 0
KLE1 171818Z 18015G21KT 38/16 A2995 RMK A01 T03810157  RH  027%=      5-min Rain = 0
KLE1 171819Z 18018KT 38/15 A2995 RMK A01 T03830148  RH  025%=      5-min Rain = 0
KLE1 171820Z 19017KT 38/15 A2995 RMK A01 T03840150  RH  025%=      5-min Rain = 0
KLE1 171821Z 19016KT 38/15 A2995 RMK A01 T03840149  RH  025%=      5-min Rain = 0
KLE1 171822Z 19014KT 38/16 A2995 RMK A01 T03810157  RH  027%=      5-min Rain = 0
KLE1 171823Z 19013KT 38/16 A2995 RMK A01 T03810159  RH  027%=      5-min Rain = 0
KLE1 171824Z 20012KT 38/16 A2995 RMK A01 T03810157  RH  027%=      5-min Rain = 0
KLE1 171825Z 19013KT 38/16 A2995 RMK A01 T03790158  RH  027%=      5-min Rain = 0
KLE1 171826Z 18016KT 38/16 A2995 RMK A01 T03790155  RH  027%=      5-min Rain = 0
KLE1 171827Z 18019KT 38/16 A2995 RMK A01 T03810157  RH  027%=      5-min Rain = 0
KLE1 171828Z 17019KT 38/16 A2995 RMK A01 T03800157  RH  027%=      5-min Rain = 0
KLE1 171829Z 18014KT 38/16 A2995 RMK A01 T03770156  RH  027%=      5-min Rain = 0
KLE1 171830Z 18015KT 38/16 A2995 RMK A01 T03750158  RH  028%=      5-min Rain = 0
KLE1 171831Z 17014KT 38/16 A2995 RMK A01 T03780158  RH  027%=      5-min Rain = 0
KLE1 171832Z 19011KT 38/16 A2995 RMK A01 T03810160  RH  027%=      5-min Rain = 0
KLE1 171833Z 19015KT 38/16 A2995 RMK A01 T03840162  RH  027%=      5-min Rain = 0
KLE1 171834Z 17017KT 38/16 A2995 RMK A01 T03830160  RH  027%=      5-min Rain = 0
KLE1 171835Z 17017KT 38/16 A2995 RMK A01 T03810158  RH  027%=      5-min Rain = 0
KLE1 171836Z 18018KT 38/16 A2995 RMK A01 T03800155  RH  026%=      5-min Rain = 0
KLE1 171837Z 18016KT 38/15 A2994 RMK A01 T03790154  RH  027%=      5-min Rain = 0
KLE1 171838Z 17016KT 38/16 A2994 RMK A01 T03770156  RH  027%=      5-min Rain = 0
KLE1 171839Z 18016G21KT 38/16 A2994 RMK A01 T03770160  RH  028%=      5-min Rain = 0
KLE1 171840Z 18018KT 38/16 A2994 RMK A01 T03780156  RH  027%=      5-min Rain = 0
KLE1 171841Z 17018KT 38/16 A2994 RMK A01 T03750155  RH  027%=      5-min Rain = 0
KLE1 171842Z 17018KT 37/16 A2994 RMK A01 T03740157  RH  028%=      5-min Rain = 0
KLE1 171843Z 16014KT 37/16 A2994 RMK A01 T03740160  RH  028%=      5-min Rain = 0
KLE1 171844Z 16015KT 37/16 A2994 RMK A01 T03730163  RH  029%=      5-min Rain = 0
KLE1 171845Z 18018KT 37/16 A2994 RMK A01 T03740163  RH  029%=      5-min Rain = 0
KLE1 171846Z 18017KT 38/16 A2994 RMK A01 T03750159  RH  028%=      5-min Rain = 0
KLE1 171847Z 17018KT 37/16 A2994 RMK A01 T03740157  RH  028%=      5-min Rain = 0
KLE1 171848Z 17017KT 37/15 A2994 RMK A01 T03720154  RH  028%=      5-min Rain = 0
KLE1 171849Z 17015KT 37/16 A2994 RMK A01 T03700155  RH  028%=      5-min Rain = 0
KLE1 171850Z 17017KT 37/16 A2994 RMK A01 T03700158  RH  029%=      5-min Rain = 0
KLE1 171851Z 18017KT 37/16 A2994 RMK A01 T03700158  RH  028%=      5-min Rain = 0
KLE1 171852Z 18018KT 37/16 A2994 RMK A01 T03700158  RH  028%=      5-min Rain = 0
KLE1 171853Z 18016KT 37/16 A2994 RMK A01 T03690157  RH  029%=      5-min Rain = 0
KLE1 171854Z 18016KT 37/16 A2994 RMK A01 T03690157  RH  029%=      5-min Rain = 0
KLE1 171855Z 17015G21KT 37/16 A2994 RMK A01 T03710160  RH  029%=      5-min Rain = 0
KLE1 171856Z 18018KT 37/16 A2994 RMK A01 T03740158  RH  028%=      5-min Rain = 0
KLE1 171857Z 19017G22KT 38/16 A2994 RMK A01 T03760162  RH  028%=      5-min Rain = 0
KLE1 171858Z 18018KT 38/16 A2994 RMK A01 T03780163  RH  028%=      5-min Rain = 0
KLE1 171859Z 18015KT 38/16 A2994 RMK A01 T03780163  RH  028%=      5-min Rain = 0
KLE1 171900Z 18015KT 38/16 A2994 RMK A01 T03780163  RH  028%=      5-min Rain = 0
KLE1 171901Z 19014KT 38/16 A2994 RMK A01 T03800162  RH  028%=      5-min Rain = 0
KLE1 171902Z 20017G22KT 38/16 A2994 RMK A01 T03840162  RH  027%=      5-min Rain = 0
KLE1 171903Z 19017G22KT 39/16 A2994 RMK A01 T03860163  RH  027%=      5-min Rain = 0
KLE1 171904Z 18018KT 39/16 A2994 RMK A01 T03870162  RH  027%=      5-min Rain = 0
KLE1 171905Z 18017KT 39/16 A2994 RMK A01 T03850163  RH  027%=      5-min Rain = 0
KLE1 171906Z 19016KT 38/16 A2994 RMK A01 T03830163  RH  027%=      5-min Rain = 0
KLE1 171907Z 19014KT 38/16 A2994 RMK A01 T03830164  RH  028%=      5-min Rain = 0
KLE1 171908Z 19013KT 39/17 A2994 RMK A01 T03850167  RH  028%=      5-min Rain = 0
KLE1 171909Z 19015KT 39/17 A2994 RMK A01 T03880166  RH  027%=      5-min Rain = 0
KLE1 171910Z 18012KT 39/16 A2994 RMK A01 T03850159  RH  027%=      5-min Rain = 0
KLE1 171911Z 18011KT 38/16 A2994 RMK A01 T03810158  RH  027%=      5-min Rain = 0
KLE1 171912Z 18011KT 38/16 A2993 RMK A01 T03800160  RH  027%=      5-min Rain = 0
KLE1 171913Z 20016KT 38/16 A2993 RMK A01 T03820163  RH  028%=      5-min Rain = 0
KLE1 171914Z 20012G17KT 38/16 A2994 RMK A01 T03830162  RH  027%=      5-min Rain = 0
KLE1 171915Z 19009KT 38/16 A2993 RMK A01 T03820163  RH  028%=      5-min Rain = 0
KLE1 171916Z 19013KT 38/16 A2993 RMK A01 T03840162  RH  027%=      5-min Rain = 0
KLE1 171917Z 17011KT 38/16 A2993 RMK A01 T03830160  RH  027%=      5-min Rain = 0
KLE1 171918Z 18011KT 38/16 A2993 RMK A01 T03820158  RH  027%=      5-min Rain = 0
KLE1 171919Z 18010G15KT 38/16 A2993 RMK A01 T03800160  RH  028%=      5-min Rain = 0
KLE1 171920Z 19016KT 38/17 A2993 RMK A01 T03810165  RH  028%=      5-min Rain = 0
KLE1 171921Z 18020KT 38/16 A2993 RMK A01 T03840164  RH  027%=      5-min Rain = 0
KLE1 171922Z 18016G21KT 38/16 A2993 RMK A01 T03820160  RH  027%=      5-min Rain = 0
KLE1 171923Z 18016KT 38/16 A2993 RMK A01 T03800161  RH  028%=      5-min Rain = 0
KLE1 171924Z 18015KT 38/16 A2993 RMK A01 T03810161  RH  027%=      5-min Rain = 0
KLE1 171925Z 17016KT 38/16 A2993 RMK A01 T03820159  RH  027%=      5-min Rain = 0
KLE1 171926Z 16018KT 38/15 A2993 RMK A01 T03830153  RH  026%=      5-min Rain = 0
KLE1 171927Z 18014KT 38/15 A2993 RMK A01 T03830154  RH  026%=      5-min Rain = 0
KLE1 171928Z 17013KT 39/15 A2993 RMK A01 T03850150  RH  025%=      5-min Rain = 0
KLE1 171929Z 16015KT 38/15 A2993 RMK A01 T03840151  RH  025%=      5-min Rain = 0
KLE1 171930Z 16015KT 38/15 A2993 RMK A01 T03830148  RH  025%=      5-min Rain = 0
KLE1 171931Z 15016KT 38/15 A2993 RMK A01 T03830148  RH  025%=      5-min Rain = 0
KLE1 171932Z 15013KT 38/15 A2993 RMK A01 T03840150  RH  025%=      5-min Rain = 0
KLE1 171933Z 16017KT 38/16 A2993 RMK A01 T03830158  RH  027%=      5-min Rain = 0
KLE1 171934Z 16021KT 39/16 A2993 RMK A01 T03870158  RH  026%=      5-min Rain = 0
KLE1 171935Z 17017KT 39/16 A2993 RMK A01 T03860156  RH  026%=      5-min Rain = 0
KLE1 171936Z 17014G19KT 39/16 A2993 RMK A01 T03860158  RH  026%=      5-min Rain = 0
KLE1 171937Z 17016G22KT 39/15 A2993 RMK A01 T03890151  RH  025%=      5-min Rain = 0
KLE1 171938Z 17017KT 39/15 A2993 RMK A01 T03900148  RH  024%=      5-min Rain = 0
KLE1 171939Z 17019KT 39/14 A2993 RMK A01 T03910144  RH  023%=      5-min Rain = 0
KLE1 171940Z 17015KT 39/15 A2993 RMK A01 T03870145  RH  024%=      5-min Rain = 0
KLE1 171941Z 17015KT 39/15 A2993 RMK A01 T03870151  RH  025%=      5-min Rain = 0
KLE1 171942Z 18014KT 39/15 A2993 RMK A01 T03860151  RH  025%=      5-min Rain = 0
KLE1 171943Z 19015G22KT 39/16 A2992 RMK A01 T03860155  RH  026%=      5-min Rain = 0
KLE1 171944Z 17014G20KT 39/16 A2992 RMK A01 T03860156  RH  026%=      5-min Rain = 0
KLE1 171945Z 18017KT 39/15 A2992 RMK A01 T03880152  RH  025%=      5-min Rain = 0
KLE1 171946Z 17016G21KT 39/15 A2992 RMK A01 T03860153  RH  025%=      5-min Rain = 0
KLE1 171947Z 19013KT 39/15 A2992 RMK A01 T03860149  RH  025%=      5-min Rain = 0
KLE1 171948Z 20014KT 39/14 A2992 RMK A01 T03890144  RH  024%=      5-min Rain = 0
KLE1 171949Z 21020G25KT 39/14 A2992 RMK A01 T03870141  RH  023%=      5-min Rain = 0
KLE1 171950Z 21015KT 39/14 A2992 RMK A01 T03860136  RH  023%=      5-min Rain = 0
KLE1 171951Z 21012KT 38/14 A2992 RMK A01 T03830137  RH  023%=      5-min Rain = 0
KLE1 171952Z 20015KT 38/14 A2992 RMK A01 T03830144  RH  024%=      5-min Rain = 0
KLE1 171953Z 19015G20KT 39/15 A2992 RMK A01 T03870154  RH  025%=      5-min Rain = 0
KLE1 171954Z 19016G21KT 39/15 A2992 RMK A01 T03890153  RH  025%=      5-min Rain = 0
KLE1 171955Z 19016KT 39/15 A2992 RMK A01 T03890151  RH  025%=      5-min Rain = 0
KLE1 171956Z 19017KT 39/15 A2992 RMK A01 T03880154  RH  025%=      5-min Rain = 0
KLE1 171957Z 20014G19KT 39/15 A2992 RMK A01 T03870152  RH  025%=      5-min Rain = 0
KLE1 171958Z 19010KT 39/15 A2992 RMK A01 T03850152  RH  025%=      5-min Rain = 0
KLE1 171959Z 19009KT 39/15 A2992 RMK A01 T03850153  RH  025%=      5-min Rain = 0
KLE1 172000Z 19015G20KT 39/16 A2992 RMK A01 T03880159  RH  026%=      5-min Rain = 0
KLE1 172001Z 19014KT 39/17 A2992 RMK A01 T03880166  RH  027%=      5-min Rain = 0
KLE1 172002Z 19012KT 38/17 A2992 RMK A01 T03840169  RH  028%=      5-min Rain = 0
KLE1 172003Z 17012KT 39/17 A2992 RMK A01 T03850171  RH  029%=      5-min Rain = 0
KLE1 172004Z 15013KT 39/18 A2992 RMK A01 T03900175  RH  029%=      5-min Rain = 0
KLE1 172005Z 15016KT 39/17 A2992 RMK A01 T03920172  RH  028%=      5-min Rain = 0
KLE1 172006Z 18013KT 39/17 A2992 RMK A01 T03890169  RH  028%=      5-min Rain = 0
KLE1 172007Z 17013G18KT 39/17 A2992 RMK A01 T03850170  RH  028%=      5-min Rain = 0
KLE1 172008Z 18015KT 39/17 A2991 RMK A01 T03850170  RH  028%=      5-min Rain = 0
KLE1 172009Z 19012KT 38/17 A2991 RMK A01 T03840170  RH  029%=      5-min Rain = 0
KLE1 172010Z 19011KT 39/17 A2992 RMK A01 T03860172  RH  029%=      5-min Rain = 0
KLE1 172011Z 19013KT 39/17 A2991 RMK A01 T03900173  RH  028%=      5-min Rain = 0
KLE1 172012Z 20014KT 39/17 A2992 RMK A01 T03920165  RH  027%=      5-min Rain = 0
KLE1 172013Z 19009KT 39/17 A2992 RMK A01 T03890165  RH  027%=      5-min Rain = 0
KLE1 172014Z 18009KT 39/17 A2991 RMK A01 T03850165  RH  027%=      5-min Rain = 0
KLE1 172015Z 19011KT 38/17 A2991 RMK A01 T03810166  RH  028%=      5-min Rain = 0
KLE1 172016Z 22020KT 38/17 A2991 RMK A01 T03830166  RH  028%=      5-min Rain = 0
KLE1 172017Z 22016KT 39/16 A2991 RMK A01 T03860163  RH  027%=      5-min Rain = 0
KLE1 172018Z 21013KT 39/17 A2991 RMK A01 T03870165  RH  027%=      5-min Rain = 0
KLE1 172019Z 20013G18KT 39/17 A2991 RMK A01 T03910169  RH  027%=      5-min Rain = 0
KLE1 172020Z 19016G22KT 39/17 A2991 RMK A01 T03940172  RH  027%=      5-min Rain = 0
KLE1 172021Z 17017G22KT 39/17 A2991 RMK A01 T03910169  RH  027%=      5-min Rain = 0
KLE1 172022Z 17014G19KT 39/17 A2991 RMK A01 T03870168  RH  028%=      5-min Rain = 0
KLE1 172023Z 19014KT 39/17 A2991 RMK A01 T03860169  RH  028%=      5-min Rain = 0
KLE1 172024Z 18013KT 38/17 A2991 RMK A01 T03830170  RH  029%=      5-min Rain = 0
KLE1 172025Z 18010KT 38/17 A2991 RMK A01 T03840169  RH  028%=      5-min Rain = 0
KLE1 172026Z 19016G24KT 39/17 A2991 RMK A01 T03850172  RH  029%=      5-min Rain = 0
KLE1 172027Z 19014G20KT 39/16 A2991 RMK A01 T03880163  RH  027%=      5-min Rain = 0
KLE1 172028Z 19021KT 39/16 A2991 RMK A01 T03890161  RH  026%=      5-min Rain = 0
KLE1 172029Z 19017G22KT 39/16 A2991 RMK A01 T03910161  RH  026%=      5-min Rain = 0
KLE1 172030Z 19018KT 39/16 A2991 RMK A01 T03900159  RH  026%=      5-min Rain = 0
KLE1 172031Z 18018KT 39/16 A2991 RMK A01 T03880158  RH  026%=      5-min Rain = 0
KLE1 172032Z 19019KT 39/16 A2991 RMK A01 T03850158  RH  026%=      5-min Rain = 0
KLE1 172033Z 19015KT 38/16 A2991 RMK A01 T03830158  RH  027%=      5-min Rain = 0
KLE1 172034Z 20013KT 38/16 A2991 RMK A01 T03830157  RH  026%=      5-min Rain = 0
KLE1 172035Z 19014KT 39/15 A2991 RMK A01 T03870153  RH  025%=      5-min Rain = 0
KLE1 172036Z 19015KT 39/15 A2991 RMK A01 T03860148  RH  025%=      5-min Rain = 0
KLE1 172037Z 21011KT 39/15 A2991 RMK A01 T03850154  RH  026%=      5-min Rain = 0
KLE1 172038Z 19014KT 39/16 A2991 RMK A01 T03870157  RH  026%=      5-min Rain = 0
KLE1 172039Z 20009KT 39/16 A2991 RMK A01 T03870160  RH  026%=      5-min Rain = 0
KLE1 172040Z 19009KT 39/16 A2991 RMK A01 T03880158  RH  026%=      5-min Rain = 0
KLE1 172041Z 18013KT 39/16 A2991 RMK A01 T03880158  RH  026%=      5-min Rain = 0
KLE1 172042Z 17014KT 39/16 A2991 RMK A01 T03880160  RH  026%=      5-min Rain = 0
KLE1 172043Z 16013KT 39/16 A2991 RMK A01 T03910157  RH  025%=      5-min Rain = 0
KLE1 172044Z 16013KT 39/16 A299 RMK A01 T03890155  RH  025%=      5-min Rain = 0
KLE1 172045Z 16015G20KT 39/16 A299 RMK A01 T03900156  RH  025%=      5-min Rain = 0
KLE1 172046Z 16013KT 39/16 A299 RMK A01 T03910155  RH  025%=      5-min Rain = 0
KLE1 172047Z 18012KT 39/16 A299 RMK A01 T03900155  RH  025%=      5-min Rain = 0
KLE1 172048Z 18012KT 39/16 A299 RMK A01 T03890156  RH  025%=      5-min Rain = 0
KLE1 172049Z 20013KT 39/16 A299 RMK A01 T03910155  RH  025%=      5-min Rain = 0
KLE1 172050Z 21012KT 39/15 A299 RMK A01 T03920154  RH  025%=      5-min Rain = 0
KLE1 172051Z 21016KT 39/15 A299 RMK A01 T03900152  RH  025%=      5-min Rain = 0
KLE1 172052Z 20016KT 39/16 A299 RMK A01 T03900156  RH  025%=      5-min Rain = 0
KLE1 172053Z 19016KT 39/16 A299 RMK A01 T03880158  RH  026%=      5-min Rain = 0
KLE1 172054Z 20017G23KT 39/15 A299 RMK A01 T03880153  RH  025%=      5-min Rain = 0
KLE1 172055Z 19015KT 39/15 A299 RMK A01 T03890150  RH  025%=      5-min Rain = 0
KLE1 172056Z 18017KT 39/16 A299 RMK A01 T03910155  RH  025%=      5-min Rain = 0
KLE1 172057Z 19012KT 39/16 A299 RMK A01 T03910161  RH  026%=      5-min Rain = 0
KLE1 172058Z 21015KT 39/16 A299 RMK A01 T03930162  RH  026%=      5-min Rain = 0
KLE1 172059Z 20012KT 39/16 A299 RMK A01 T03940161  RH  026%=      5-min Rain = 0
KLE1 172100Z 19012KT 40/16 A299 RMK A01 T03950162  RH  026%=      5-min Rain = 0
KLE1 172101Z 18012KT 40/17 A299 RMK A01 T03970166  RH  026%=      5-min Rain = 0
KLE1 172102Z 17015KT 40/17 A299 RMK A01 T03970166  RH  026%=      5-min Rain = 0
KLE1 172103Z 16013KT 39/17 A299 RMK A01 T03930168  RH  027%=      5-min Rain = 0
KLE1 172104Z 17015KT 39/17 A299 RMK A01 T03890166  RH  027%=      5-min Rain = 0
KLE1 172105Z 16013KT 38/16 A299 RMK A01 T03830163  RH  027%=      5-min Rain = 0
KLE1 172106Z 16012KT 38/16 A299 RMK A01 T03800164  RH  028%=      5-min Rain = 0
KLE1 172107Z 16013KT 38/17 A299 RMK A01 T03810165  RH  028%=      5-min Rain = 0
KLE1 172108Z 17014KT 39/17 A299 RMK A01 T03850167  RH  028%=      5-min Rain = 0
KLE1 172109Z 18012G17KT 39/17 A299 RMK A01 T03890168  RH  028%=      5-min Rain = 0
KLE1 172110Z 17018KT 39/17 A2989 RMK A01 T03920171  RH  028%=      5-min Rain = 0
KLE1 172111Z 16017G22KT 39/17 A299 RMK A01 T03920170  RH  027%=      5-min Rain = 0
KLE1 172112Z 15014KT 39/17 A299 RMK A01 T03910171  RH  028%=      5-min Rain = 0
KLE1 172113Z 16014KT 39/17 A299 RMK A01 T03910171  RH  028%=      5-min Rain = 0
KLE1 172114Z 17013KT 39/17 A299 RMK A01 T03890169  RH  028%=      5-min Rain = 0
KLE1 172115Z 17011KT 39/17 A299 RMK A01 T03880169  RH  028%=      5-min Rain = 0
KLE1 172116Z 16010KT 39/17 A299 RMK A01 T03890171  RH  028%=      5-min Rain = 0
KLE1 172117Z 19016KT 39/17 A2989 RMK A01 T03920172  RH  028%=      5-min Rain = 0
KLE1 172118Z 18015KT 40/17 A2989 RMK A01 T03950167  RH  027%=      5-min Rain = 0
KLE1 172119Z 19016KT 39/17 A299 RMK A01 T03920167  RH  027%=      5-min Rain = 0
KLE1 172120Z 19012KT 39/17 A299 RMK A01 T03910165  RH  027%=      5-min Rain = 0
KLE1 172121Z 21010KT 39/16 A2989 RMK A01 T03890164  RH  027%=      5-min Rain = 0
KLE1 172122Z 19009KT 39/17 A2989 RMK A01 T03890167  RH  027%=      5-min Rain = 0
KLE1 172123Z 19010KT 39/17 A2989 RMK A01 T03920165  RH  027%=      5-min Rain = 0
KLE1 172124Z 20009KT 39/16 A2989 RMK A01 T03930164  RH  026%=      5-min Rain = 0
KLE1 172125Z 19009KT 39/16 A2989 RMK A01 T03930164  RH  026%=      5-min Rain = 0
KLE1 172126Z 20013KT 39/17 A2989 RMK A01 T03930169  RH  027%=      5-min Rain = 0
KLE1 172127Z 21012KT 40/17 A2989 RMK A01 T03960167  RH  026%=      5-min Rain = 0
KLE1 172128Z 20011KT 39/17 A2989 RMK A01 T03940166  RH  026%=      5-min Rain = 0
KLE1 172129Z 18010KT 39/17 A2989 RMK A01 T03920166  RH  027%=      5-min Rain = 0
KLE1 172130Z 16011KT 39/17 A2989 RMK A01 T03920167  RH  027%=      5-min Rain = 0
KLE1 172131Z 17017G23KT 39/17 A2989 RMK A01 T03930169  RH  027%=      5-min Rain = 0
KLE1 172132Z 17021KT 40/17 A2989 RMK A01 T03950165  RH  026%=      5-min Rain = 0
KLE1 172133Z 16016KT 39/16 A2989 RMK A01 T03930163  RH  026%=      5-min Rain = 0
KLE1 172134Z 16019KT 39/16 A2989 RMK A01 T03900164  RH  027%=      5-min Rain = 0
KLE1 172135Z 16017KT 39/16 A2989 RMK A01 T03890164  RH  027%=      5-min Rain = 0
KLE1 172136Z 16016KT 39/17 A2989 RMK A01 T03880165  RH  027%=      5-min Rain = 0
KLE1 172137Z 16014KT 39/16 A2989 RMK A01 T03870164  RH  027%=      5-min Rain = 0
KLE1 172138Z 16012KT 39/17 A2989 RMK A01 T03860165  RH  027%=      5-min Rain = 0
KLE1 172139Z 16011KT 39/17 A2989 RMK A01 T03860166  RH  027%=      5-min Rain = 0
KLE1 172140Z 16012KT 39/17 A2989 RMK A01 T03880165  RH  027%=      5-min Rain = 0
KLE1 172141Z 17007KT 39/17 A2988 RMK A01 T03880166  RH  027%=      5-min Rain = 0
KLE1 172142Z 19010KT 39/17 A2988 RMK A01 T03910167  RH  027%=      5-min Rain = 0
KLE1 172143Z 20014KT 39/16 A2988 RMK A01 T03940163  RH  026%=      5-min Rain = 0
KLE1 172144Z 18014KT 39/16 A2988 RMK A01 T03930164  RH  026%=      5-min Rain = 0
KLE1 172145Z 18015G20KT 39/17 A2988 RMK A01 T03940166  RH  026%=      5-min Rain = 0
KLE1 172146Z 16015KT 39/17 A2988 RMK A01 T03910165  RH  027%=      5-min Rain = 0
KLE1 172147Z 16014KT 39/17 A2988 RMK A01 T03910167  RH  027%=      5-min Rain = 0
KLE1 172148Z 16011KT 39/17 A2988 RMK A01 T03890167  RH  027%=      5-min Rain = 0
KLE1 172149Z 18013KT 39/17 A2988 RMK A01 T03900169  RH  027%=      5-min Rain = 0
KLE1 172150Z 17013G18KT 39/17 A2988 RMK A01 T03920169  RH  027%=      5-min Rain = 0
KLE1 172151Z 18016KT 39/17 A2988 RMK A01 T03920167  RH  027%=      5-min Rain = 0
KLE1 172152Z 17016KT 39/16 A2988 RMK A01 T03920164  RH  026%=      5-min Rain = 0
KLE1 172153Z 19017G24KT 39/16 A2988 RMK A01 T03900164  RH  027%=      5-min Rain = 0
KLE1 172154Z 18020G25KT 39/17 A2988 RMK A01 T03910170  RH  028%=      5-min Rain = 0
KLE1 172155Z 17022KT 39/17 A2988 RMK A01 T03940167  RH  027%=      5-min Rain = 0
KLE1 172156Z 18020KT 39/17 A2988 RMK A01 T03920166  RH  027%=      5-min Rain = 0
KLE1 172157Z 18021G28KT 39/17 A2988 RMK A01 T03900166  RH  027%=      5-min Rain = 0
KLE1 172158Z 17016KT 39/17 A2988 RMK A01 T03880166  RH  027%=      5-min Rain = 0
KLE1 172159Z 16015G20KT 39/17 A2988 RMK A01 T03880167  RH  027%=      5-min Rain = 0
KLE1 172200Z 18015KT 39/17 A2988 RMK A01 T03880166  RH  027%=      5-min Rain = 0
KLE1 172201Z 18014KT 39/17 A2988 RMK A01 T03880167  RH  027%=      5-min Rain = 0
KLE1 172202Z 16014G19KT 39/17 A2988 RMK A01 T03880169  RH  028%=      5-min Rain = 0
KLE1 172203Z 16018KT 39/17 A2988 RMK A01 T03890170  RH  028%=      5-min Rain = 0
KLE1 172204Z 16015KT 39/17 A2988 RMK A01 T03900170  RH  028%=      5-min Rain = 0
KLE1 172205Z 16013KT 39/17 A2988 RMK A01 T03890169  RH  028%=      5-min Rain = 0
KLE1 172206Z 15016G21KT 39/17 A2987 RMK A01 T03880172  RH  028%=      5-min Rain = 0
KLE1 172207Z 17017KT 39/17 A2987 RMK A01 T03910172  RH  028%=      5-min Rain = 0
KLE1 172208Z 18016KT 39/17 A2988 RMK A01 T03940171  RH  027%=      5-min Rain = 0
KLE1 172209Z 19017KT 39/17 A2988 RMK A01 T03920168  RH  027%=      5-min Rain = 0
KLE1 172210Z 19015KT 39/17 A2987 RMK A01 T03890166  RH  027%=      5-min Rain = 0
KLE1 172211Z 18014KT 39/17 A2987 RMK A01 T03870165  RH  027%=      5-min Rain = 0
KLE1 172212Z 17016KT 39/17 A2987 RMK A01 T03860166  RH  027%=      5-min Rain = 0
KLE1 172213Z 16017KT 39/17 A2987 RMK A01 T03870168  RH  028%=      5-min Rain = 0
KLE1 172214Z 17015KT 39/17 A2987 RMK A01 T03850165  RH  028%=      5-min Rain = 0
KLE1 172215Z 17014KT 38/16 A2987 RMK A01 T03810163  RH  028%=      5-min Rain = 0
KLE1 172216Z 16014G20KT 38/17 A2987 RMK A01 T03820166  RH  028%=      5-min Rain = 0
KLE1 172217Z 17016KT 39/17 A2987 RMK A01 T03850167  RH  028%=      5-min Rain = 0
KLE1 172218Z 17010KT 39/17 A2987 RMK A01 T03860168  RH  028%=      5-min Rain = 0
KLE1 172219Z 19012KT 39/17 A2987 RMK A01 T03870169  RH  028%=      5-min Rain = 0
KLE1 172220Z 16013KT 39/17 A2987 RMK A01 T03860168  RH  028%=      5-min Rain = 0
KLE1 172221Z 16015G21KT 39/17 A2987 RMK A01 T03860168  RH  028%=      5-min Rain = 0
KLE1 172222Z 15015KT 39/17 A2987 RMK A01 T03870168  RH  028%=      5-min Rain = 0
KLE1 172223Z 16013KT 39/17 A2987 RMK A01 T03860167  RH  028%=      5-min Rain = 0
KLE1 172224Z 17015KT 39/17 A2987 RMK A01 T03860170  RH  028%=      5-min Rain = 0
KLE1 172225Z 18016KT 39/17 A2987 RMK A01 T03880170  RH  028%=      5-min Rain = 0
KLE1 172226Z 18014G19KT 39/17 A2987 RMK A01 T03870170  RH  028%=      5-min Rain = 0
KLE1 172227Z 19011KT 39/17 A2987 RMK A01 T03890173  RH  028%=      5-min Rain = 0
KLE1 172228Z 18013G18KT 39/17 A2987 RMK A01 T03920172  RH  028%=      5-min Rain = 0
KLE1 172229Z 17014KT 39/17 A2987 RMK A01 T03920170  RH  027%=      5-min Rain = 0
KLE1 172230Z 18013KT 39/17 A2987 RMK A01 T03930169  RH  027%=      5-min Rain = 0
KLE1 172231Z 18015KT 39/17 A2987 RMK A01 T03920169  RH  027%=      5-min Rain = 0
KLE1 172232Z 18014KT 39/17 A2987 RMK A01 T03860166  RH  028%=      5-min Rain = 0
KLE1 172233Z 17014KT 38/17 A2987 RMK A01 T03810166  RH  028%=      5-min Rain = 0
KLE1 172234Z 16014G20KT 38/17 A2987 RMK A01 T03780167  RH  029%=      5-min Rain = 0
KLE1 172235Z 16015KT 38/17 A2987 RMK A01 T03760165  RH  029%=      5-min Rain = 0
KLE1 172236Z 16014KT 38/17 A2987 RMK A01 T03760165  RH  029%=      5-min Rain = 0
KLE1 172237Z 15013KT 38/17 A2987 RMK A01 T03800168  RH  029%=      5-min Rain = 0
KLE1 172238Z 16014KT 38/17 A2987 RMK A01 T03830168  RH  028%=      5-min Rain = 0
KLE1 172239Z 16013KT 39/17 A2987 RMK A01 T03850168  RH  028%=      5-min Rain = 0
KLE1 172240Z 17014KT 39/17 A2987 RMK A01 T03870169  RH  028%=      5-min Rain = 0
KLE1 172241Z 18019KT 39/17 A2986 RMK A01 T03880169  RH  028%=      5-min Rain = 0
KLE1 172242Z 18015KT 39/17 A2987 RMK A01 T03880167  RH  027%=      5-min Rain = 0
KLE1 172243Z 18011KT 39/16 A2987 RMK A01 T03860164  RH  027%=      5-min Rain = 0
KLE1 172244Z 18015G23KT 38/17 A2986 RMK A01 T03840167  RH  028%=      5-min Rain = 0
KLE1 172245Z 18020G25KT 39/17 A2986 RMK A01 T03850168  RH  028%=      5-min Rain = 0
KLE1 172246Z 18020KT 39/17 A2986 RMK A01 T03850168  RH  028%=      5-min Rain = 0
KLE1 172247Z 19018KT 38/17 A2987 RMK A01 T03840168  RH  028%=      5-min Rain = 0
KLE1 172248Z 19016KT 38/17 A2986 RMK A01 T03840167  RH  028%=      5-min Rain = 0
KLE1 172249Z 17017KT 38/17 A2987 RMK A01 T03840167  RH  028%=      5-min Rain = 0
KLE1 172250Z 17015KT 39/17 A2986 RMK A01 T03850165  RH  028%=      5-min Rain = 0
KLE1 172251Z 16014KT 39/17 A2986 RMK A01 T03850167  RH  028%=      5-min Rain = 0
KLE1 172252Z 16014KT 39/17 A2986 RMK A01 T03860167  RH  028%=      5-min Rain = 0
KLE1 172253Z 16012G18KT 38/17 A2986 RMK A01 T03840166  RH  028%=      5-min Rain = 0
KLE1 172254Z 18016KT 38/17 A2986 RMK A01 T03810166  RH  028%=      5-min Rain = 0
KLE1 172255Z 18015KT 38/17 A2986 RMK A01 T03800165  RH  028%=      5-min Rain = 0
KLE1 172256Z 18016KT 38/17 A2986 RMK A01 T03810166  RH  028%=      5-min Rain = 0
KLE1 172257Z 17015G20KT 38/17 A2986 RMK A01 T03790165  RH  028%=      5-min Rain = 0
KLE1 172258Z 17017KT 38/16 A2986 RMK A01 T03750163  RH  029%=      5-min Rain = 0
KLE1 172259Z 16015KT 38/16 A2986 RMK A01 T03750164  RH  029%=      5-min Rain = 0
KLE1 172300Z 16014KT 38/17 A2986 RMK A01 T03770165  RH  029%=      5-min Rain = 0
KLE1 172301Z 16014KT 38/17 A2986 RMK A01 T03780166  RH  029%=      5-min Rain = 0
KLE1 172302Z 16020G26KT 38/17 A2986 RMK A01 T03820168  RH  029%=      5-min Rain = 0
KLE1 172303Z 17019KT 38/17 A2986 RMK A01 T03830167  RH  028%=      5-min Rain = 0
KLE1 172304Z 17021KT 38/17 A2986 RMK A01 T03830167  RH  028%=      5-min Rain = 0
KLE1 172305Z 17018KT 38/17 A2986 RMK A01 T03810167  RH  028%=      5-min Rain = 0
KLE1 172306Z 18020KT 38/17 A2986 RMK A01 T03800165  RH  028%=      5-min Rain = 0
KLE1 172307Z 18016KT 38/17 A2986 RMK A01 T03790166  RH  029%=      5-min Rain = 0
KLE1 172308Z 16019KT 38/17 A2986 RMK A01 T03810168  RH  029%=      5-min Rain = 0
KLE1 172309Z 15017KT 38/17 A2986 RMK A01 T03820166  RH  028%=      5-min Rain = 0
KLE1 172310Z 16016KT 38/17 A2986 RMK A01 T03820166  RH  028%=      5-min Rain = 0
KLE1 172311Z 16015KT 38/17 A2986 RMK A01 T03810167  RH  028%=      5-min Rain = 0
KLE1 172312Z 16018KT 38/17 A2986 RMK A01 T03820166  RH  028%=      5-min Rain = 0
KLE1 172313Z 18015KT 38/17 A2986 RMK A01 T03840166  RH  028%=      5-min Rain = 0
KLE1 172314Z 17015KT 38/16 A2986 RMK A01 T03830164  RH  028%=      5-min Rain = 0
KLE1 172315Z 17013KT 38/17 A2986 RMK A01 T03820166  RH  028%=      5-min Rain = 0
KLE1 172316Z 16014KT 38/17 A2986 RMK A01 T03830167  RH  028%=      5-min Rain = 0
KLE1 172317Z 16017KT 39/17 A2986 RMK A01 T03850166  RH  028%=      5-min Rain = 0
KLE1 172318Z 17016KT 38/17 A2986 RMK A01 T03830165  RH  028%=      5-min Rain = 0
KLE1 172319Z 17017KT 38/17 A2986 RMK A01 T03820165  RH  028%=      5-min Rain = 0
KLE1 172320Z 17015KT 38/16 A2986 RMK A01 T03800164  RH  028%=      5-min Rain = 0
KLE1 172321Z 17016KT 38/16 A2986 RMK A01 T03780164  RH  028%=      5-min Rain = 0
KLE1 172322Z 16012KT 38/16 A2986 RMK A01 T03790164  RH  028%=      5-min Rain = 0
KLE1 172323Z 16016KT 38/17 A2986 RMK A01 T03800165  RH  028%=      5-min Rain = 0
KLE1 172324Z 17015KT 38/17 A2986 RMK A01 T03790165  RH  029%=      5-min Rain = 0
KLE1 172325Z 17016KT 38/17 A2986 RMK A01 T03790166  RH  029%=      5-min Rain = 0
KLE1 172326Z 17014KT 38/17 A2986 RMK A01 T03790166  RH  029%=      5-min Rain = 0
KLE1 172327Z 17012KT 38/17 A2986 RMK A01 T03780167  RH  029%=      5-min Rain = 0
KLE1 172328Z 16012G18KT 38/17 A2986 RMK A01 T03790167  RH  029%=      5-min Rain = 0
KLE1 172329Z 17018KT 38/17 A2986 RMK A01 T03790167  RH  029%=      5-min Rain = 0
KLE1 172330Z 17018KT 38/17 A2986 RMK A01 T03790167  RH  029%=      5-min Rain = 0
KLE1 172331Z 16017KT 38/17 A2986 RMK A01 T03780166  RH  029%=      5-min Rain = 0
KLE1 172332Z 16018KT 38/17 A2986 RMK A01 T03770167  RH  029%=      5-min Rain = 0
KLE1 172333Z 17017KT 38/17 A2986 RMK A01 T03770166  RH  029%=      5-min Rain = 0
KLE1 172334Z 16013KT 38/17 A2986 RMK A01 T03770167  RH  029%=      5-min Rain = 0
KLE1 172335Z 16015KT 38/17 A2986 RMK A01 T03780167  RH  029%=      5-min Rain = 0
KLE1 172336Z 17016KT 38/17 A2986 RMK A01 T03780167  RH  029%=      5-min Rain = 0
KLE1 172337Z 16015KT 38/17 A2986 RMK A01 T03780167  RH  029%=      5-min Rain = 0
KLE1 172338Z 17016KT 38/17 A2986 RMK A01 T03780167  RH  029%=      5-min Rain = 0
KLE1 172339Z 17015KT 38/17 A2986 RMK A01 T03780167  RH  029%=      5-min Rain = 0
KLE1 172340Z 16016KT 38/17 A2986 RMK A01 T03790169  RH  029%=      5-min Rain = 0
KLE1 172341Z 17013KT 38/17 A2986 RMK A01 T03800168  RH  029%=      5-min Rain = 0
KLE1 172342Z 16014KT 38/17 A2986 RMK A01 T03790168  RH  029%=      5-min Rain = 0
KLE1 172343Z 17016KT 38/17 A2985 RMK A01 T03790168  RH  029%=      5-min Rain = 0
KLE1 172344Z 17017KT 38/17 A2985 RMK A01 T03780166  RH  029%=      5-min Rain = 0
KLE1 172345Z 16015KT 38/17 A2985 RMK A01 T03770167  RH  029%=      5-min Rain = 0
KLE1 172346Z 16016KT 38/17 A2985 RMK A01 T03770167  RH  029%=      5-min Rain = 0
KLE1 172347Z 16014KT 38/17 A2985 RMK A01 T03770166  RH  029%=      5-min Rain = 0
KLE1 172348Z 17017G22KT 38/17 A2985 RMK A01 T03760167  RH  029%=      5-min Rain = 0
KLE1 172349Z 17020KT 38/17 A2985 RMK A01 T03750167  RH  029%=      5-min Rain = 0
KLE1 172350Z 16018KT 37/17 A2985 RMK A01 T03720167  RH  030%=      5-min Rain = 0
KLE1 172351Z 16015KT 37/17 A2985 RMK A01 T03700166  RH  030%=      5-min Rain = 0
KLE1 172352Z 16018KT 37/17 A2985 RMK A01 T03680165  RH  030%=      5-min Rain = 0
KLE1 172353Z 15017KT 37/17 A2985 RMK A01 T03700166  RH  030%=      5-min Rain = 0
KLE1 172354Z 16016KT 37/17 A2985 RMK A01 T03720167  RH  030%=      5-min Rain = 0
KLE1 172355Z 17013KT 37/17 A2985 RMK A01 T03730167  RH  030%=      5-min Rain = 0
KLE1 172356Z 17016KT 37/17 A2985 RMK A01 T03730168  RH  030%=      5-min Rain = 0
KLE1 172357Z 16016KT 37/17 A2986 RMK A01 T03740170  RH  030%=      5-min Rain = 0
KLE1 172358Z 16014KT 38/17 A2986 RMK A01 T03750170  RH  030%=      5-min Rain = 0
KLE1 172359Z 16012KT 38/17 A2986 RMK A01 T03760171  RH  030%=      5-min Rain = 0
KLE1 180000Z 17013KT 38/17 A2986 RMK A01 T03770174  RH  030%=      5-min Rain = 0
KLE1 180001Z 18015KT 38/17 A2986 RMK A01 T03770172  RH  030%=      5-min Rain = 0
KLE1 180002Z 17019KT 38/17 A2986 RMK A01 T03770169  RH  029%=      5-min Rain = 0
KLE1 180003Z 18015KT 38/17 A2986 RMK A01 T03760166  RH  029%=      5-min Rain = 0
KLE1 180004Z 18011KT 37/17 A2986 RMK A01 T03740168  RH  030%=      5-min Rain = 0
KLE1 180005Z 17015KT 38/17 A2986 RMK A01 T03750170  RH  030%=      5-min Rain = 0
KLE1 180006Z 17015KT 38/17 A2986 RMK A01 T03750168  RH  030%=      5-min Rain = 0
KLE1 180007Z 18016KT 37/17 A2986 RMK A01 T03740168  RH  030%=      5-min Rain = 0
KLE1 180008Z 17016KT 37/17 A2985 RMK A01 T03730167  RH  030%=      5-min Rain = 0
KLE1 180009Z 16016KT 37/17 A2985 RMK A01 T03720168  RH  030%=      5-min Rain = 0
KLE1 180010Z 17017KT 37/17 A2985 RMK A01 T03720168  RH  030%=      5-min Rain = 0
KLE1 180011Z 18014KT 37/17 A2985 RMK A01 T03720170  RH  030%=      5-min Rain = 0
KLE1 180012Z 17014KT 37/17 A2985 RMK A01 T03720171  RH  031%=      5-min Rain = 0
KLE1 180013Z 16016KT 37/17 A2985 RMK A01 T03710171  RH  031%=      5-min Rain = 0
KLE1 180014Z 16017KT 37/17 A2985 RMK A01 T03710171  RH  031%=      5-min Rain = 0
KLE1 180015Z 16015KT 37/17 A2985 RMK A01 T03690172  RH  031%=      5-min Rain = 0
KLE1 180016Z 17016KT 37/17 A2985 RMK A01 T03690172  RH  031%=      5-min Rain = 0
KLE1 180017Z 18019KT 37/17 A2985 RMK A01 T03690171  RH  031%=      5-min Rain = 0
KLE1 180018Z 18017KT 37/17 A2985 RMK A01 T03690172  RH  031%=      5-min Rain = 0
KLE1 180019Z 18015KT 37/17 A2985 RMK A01 T03680172  RH  031%=      5-min Rain = 0
KLE1 180020Z 17015G22KT 37/17 A2985 RMK A01 T03680174  RH  032%=      5-min Rain = 0
KLE1 180021Z 17015KT 37/17 A2985 RMK A01 T03680174  RH  032%=      5-min Rain = 0
KLE1 180022Z 17018G23KT 37/17 A2985 RMK A01 T03670174  RH  032%=      5-min Rain = 0
KLE1 180023Z 17019KT 37/17 A2985 RMK A01 T03660172  RH  032%=      5-min Rain = 0
KLE1 180024Z 17016KT 37/17 A2985 RMK A01 T03660172  RH  032%=      5-min Rain = 0
KLE1 180025Z 17019G24KT 37/17 A2985 RMK A01 T03660173  RH  032%=      5-min Rain = 0
KLE1 180026Z 17020KT 37/17 A2985 RMK A01 T03650172  RH  032%=      5-min Rain = 0
KLE1 180027Z 17017KT 37/17 A2985 RMK A01 T03650172  RH  032%=      5-min Rain = 0
KLE1 180028Z 17017KT 37/17 A2985 RMK A01 T03650173  RH  032%=      5-min Rain = 0
KLE1 180029Z 17016G21KT 37/17 A2985 RMK A01 T03650172  RH  032%=      5-min Rain = 0
KLE1 180030Z 16017KT 37/17 A2985 RMK A01 T03650174  RH  033%=      5-min Rain = 0
KLE1 180031Z 16017KT 37/17 A2985 RMK A01 T03650174  RH  033%=      5-min Rain = 0
KLE1 180032Z 16016KT 37/17 A2985 RMK A01 T03650174  RH  032%=      5-min Rain = 0
KLE1 180033Z 17018KT 37/17 A2985 RMK A01 T03650173  RH  032%=      5-min Rain = 0
KLE1 180034Z 17018G23KT 36/17 A2985 RMK A01 T03640173  RH  033%=      5-min Rain = 0
KLE1 180035Z 17016KT 36/17 A2985 RMK A01 T03640173  RH  033%=      5-min Rain = 0
KLE1 180036Z 17014KT 36/17 A2985 RMK A01 T03640174  RH  033%=      5-min Rain = 0
KLE1 180037Z 16017KT 36/18 A2985 RMK A01 T03640175  RH  033%=      5-min Rain = 0
KLE1 180038Z 16019KT 36/17 A2985 RMK A01 T03640173  RH  033%=      5-min Rain = 0
KLE1 180039Z 16019KT 36/17 A2985 RMK A01 T03630173  RH  033%=      5-min Rain = 0
KLE1 180040Z 16017KT 36/17 A2985 RMK A01 T03620174  RH  033%=      5-min Rain = 0
KLE1 180041Z 17018KT 36/17 A2985 RMK A01 T03620174  RH  033%=      5-min Rain = 0
KLE1 180042Z 16016KT 36/17 A2985 RMK A01 T03620173  RH  033%=      5-min Rain = 0
KLE1 180043Z 16017KT 36/17 A2985 RMK A01 T03620173  RH  033%=      5-min Rain = 0
KLE1 180044Z 16015G21KT 36/17 A2985 RMK A01 T03610174  RH  033%=      5-min Rain = 0
KLE1 180045Z 15020KT 36/17 A2985 RMK A01 T03610173  RH  033%=      5-min Rain = 0
KLE1 180046Z 16019KT 36/17 A2985 RMK A01 T03600173  RH  033%=      5-min Rain = 0
KLE1 180047Z 16018KT 36/17 A2985 RMK A01 T03600173  RH  033%=      5-min Rain = 0
KLE1 180048Z 16014KT 36/17 A2985 RMK A01 T03600174  RH  033%=      5-min Rain = 0
KLE1 180049Z 16015KT 36/17 A2985 RMK A01 T03600174  RH  034%=      5-min Rain = 0
KLE1 180050Z 17017KT 36/17 A2985 RMK A01 T03600174  RH  033%=      5-min Rain = 0
KLE1 180051Z 16017KT 36/17 A2985 RMK A01 T03590174  RH  034%=      5-min Rain = 0
KLE1 180052Z 16018KT 36/17 A2985 RMK A01 T03590173  RH  034%=      5-min Rain = 0
KLE1 180053Z 16013KT 36/17 A2985 RMK A01 T03580174  RH  034%=      5-min Rain = 0
KLE1 180054Z 17015KT 36/17 A2985 RMK A01 T03580174  RH  034%=      5-min Rain = 0
KLE1 180055Z 16016KT 36/17 A2985 RMK A01 T03580174  RH  034%=      5-min Rain = 0
KLE1 180056Z 16015KT 36/17 A2985 RMK A01 T03570173  RH  034%=      5-min Rain = 0
KLE1 180057Z 16016KT 36/17 A2985 RMK A01 T03570173  RH  034%=      5-min Rain = 0
KLE1 180058Z 16015KT 36/17 A2985 RMK A01 T03570174  RH  034%=      5-min Rain = 0
KLE1 180059Z 16014KT 36/17 A2985 RMK A01 T03570174  RH  034%=      5-min Rain = 0
KLE1 180100Z 16019KT 36/17 A2985 RMK A01 T03560173  RH  034%=      5-min Rain = 0
KLE1 180101Z 16015KT 36/17 A2985 RMK A01 T03560172  RH  034%=      5-min Rain = 0
KLE1 180102Z 15014KT 36/17 A2985 RMK A01 T03550173  RH  034%=      5-min Rain = 0
KLE1 180103Z 15016KT 36/17 A2985 RMK A01 T03550173  RH  034%=      5-min Rain = 0
KLE1 180104Z 16013KT 35/17 A2985 RMK A01 T03540173  RH  034%=      5-min Rain = 0
KLE1 180105Z 15012KT 35/17 A2985 RMK A01 T03540174  RH  034%=      5-min Rain = 0
KLE1 180106Z 16017G23KT 35/17 A2985 RMK A01 T03530174  RH  035%=      5-min Rain = 0
KLE1 180107Z 16018KT 35/17 A2985 RMK A01 T03530172  RH  034%=      5-min Rain = 0
KLE1 180108Z 16017KT 35/17 A2985 RMK A01 T03530171  RH  034%=      5-min Rain = 0
KLE1 180109Z 16017KT 35/17 A2985 RMK A01 T03530172  RH  034%=      5-min Rain = 0
KLE1 180110Z 16014KT 35/17 A2985 RMK A01 T03530172  RH  034%=      5-min Rain = 0
KLE1 180111Z 16016KT 35/17 A2985 RMK A01 T03520172  RH  034%=      5-min Rain = 0
KLE1 180112Z 17015KT 35/17 A2985 RMK A01 T03520172  RH  034%=      5-min Rain = 0
KLE1 180113Z 16016KT 35/17 A2985 RMK A01 T03520172  RH  034%=      5-min Rain = 0
KLE1 180114Z 16016KT 35/17 A2985 RMK A01 T03520172  RH  034%=      5-min Rain = 0
KLE1 180115Z 17014KT 35/17 A2986 RMK A01 T03520172  RH  034%=      5-min Rain = 0
KLE1 180116Z 16013KT 35/17 A2986 RMK A01 T03520172  RH  035%=      5-min Rain = 0
KLE1 180117Z 17012KT 35/17 A2986 RMK A01 T03510172  RH  035%=      5-min Rain = 0
KLE1 180118Z 17014KT 35/17 A2986 RMK A01 T03510172  RH  035%=      5-min Rain = 0
KLE1 180119Z 17014KT 35/17 A2986 RMK A01 T03510172  RH  035%=      5-min Rain = 0
KLE1 180120Z 17013KT 35/17 A2986 RMK A01 T03500172  RH  035%=      5-min Rain = 0
KLE1 180121Z 17012KT 35/17 A2986 RMK A01 T03500172  RH  035%=      5-min Rain = 0
KLE1 180122Z 16012KT 35/17 A2986 RMK A01 T03500173  RH  035%=      5-min Rain = 0
KLE1 180123Z 16014KT 35/17 A2986 RMK A01 T03490173  RH  035%=      5-min Rain = 0
KLE1 180124Z 16015KT 35/17 A2986 RMK A01 T03490172  RH  035%=      5-min Rain = 0
KLE1 180125Z 17016KT 35/17 A2986 RMK A01 T03480171  RH  035%=      5-min Rain = 0
KLE1 180126Z 16013KT 35/17 A2986 RMK A01 T03480171  RH  035%=      5-min Rain = 0
KLE1 180127Z 16014G19KT 35/17 A2986 RMK A01 T03480171  RH  035%=      5-min Rain = 0
KLE1 180128Z 16017KT 35/17 A2986 RMK A01 T03480171  RH  035%=      5-min Rain = 0
KLE1 180129Z 16016KT 35/17 A2986 RMK A01 T03470170  RH  035%=      5-min Rain = 0
KLE1 180130Z 16014KT 35/17 A2986 RMK A01 T03470170  RH  035%=      5-min Rain = 0
KLE1 180131Z 16014KT 35/17 A2986 RMK A01 T03470171  RH  035%=      5-min Rain = 0
KLE1 180132Z 16013KT 35/17 A2986 RMK A01 T03460170  RH  035%=      5-min Rain = 0
KLE1 180133Z 16014KT 35/17 A2986 RMK A01 T03450170  RH  035%=      5-min Rain = 0
KLE1 180134Z 16016KT 35/17 A2986 RMK A01 T03450170  RH  035%=      5-min Rain = 0
KLE1 180135Z 16015KT 35/17 A2986 RMK A01 T03450170  RH  035%=      5-min Rain = 0
KLE1 180136Z 16015KT 34/17 A2986 RMK A01 T03440169  RH  035%=      5-min Rain = 0
KLE1 180137Z 16014KT 34/17 A2986 RMK A01 T03440170  RH  035%=      5-min Rain = 0
KLE1 180138Z 16013KT 34/17 A2986 RMK A01 T03440170  RH  036%=      5-min Rain = 0
KLE1 180139Z 15013KT 34/17 A2986 RMK A01 T03430170  RH  036%=      5-min Rain = 0
KLE1 180140Z 15012KT 34/17 A2986 RMK A01 T03420170  RH  036%=      5-min Rain = 0
KLE1 180141Z 16015KT 34/17 A2986 RMK A01 T03410170  RH  036%=      5-min Rain = 0
KLE1 180142Z 16014KT 34/17 A2986 RMK A01 T03420170  RH  036%=      5-min Rain = 0
KLE1 180143Z 16013KT 34/17 A2986 RMK A01 T03410170  RH  036%=      5-min Rain = 0
KLE1 180144Z 16014KT 34/17 A2986 RMK A01 T03410170  RH  036%=      5-min Rain = 0
KLE1 180145Z 16013KT 34/17 A2986 RMK A01 T03400170  RH  036%=      5-min Rain = 0
KLE1 180146Z 16014KT 34/17 A2986 RMK A01 T03400169  RH  036%=      5-min Rain = 0
KLE1 180147Z 16016KT 34/17 A2986 RMK A01 T03390169  RH  036%=      5-min Rain = 0
KLE1 180148Z 16013KT 34/17 A2986 RMK A01 T03400169  RH  036%=      5-min Rain = 0
KLE1 180149Z 16012KT 34/17 A2986 RMK A01 T03390169  RH  036%=      5-min Rain = 0
KLE1 180150Z 16014KT 34/17 A2986 RMK A01 T03390169  RH  036%=      5-min Rain = 0
KLE1 180151Z 16015KT 34/17 A2986 RMK A01 T03380168  RH  036%=      5-min Rain = 0
KLE1 180152Z 16013KT 34/17 A2986 RMK A01 T03380167  RH  036%=      5-min Rain = 0
KLE1 180153Z 16012KT 34/17 A2986 RMK A01 T03380167  RH  036%=      5-min Rain = 0
KLE1 180154Z 16012KT 34/17 A2986 RMK A01 T03380167  RH  036%=      5-min Rain = 0
KLE1 180155Z 16013KT 34/17 A2986 RMK A01 T03370166  RH  036%=      5-min Rain = 0
KLE1 180156Z 16013KT 34/17 A2986 RMK A01 T03370166  RH  036%=      5-min Rain = 0
KLE1 180157Z 16014KT 34/17 A2986 RMK A01 T03360165  RH  036%=      5-min Rain = 0
KLE1 180158Z 16012KT 34/16 A2986 RMK A01 T03360164  RH  036%=      5-min Rain = 0
KLE1 180159Z 16014KT 34/16 A2986 RMK A01 T03360163  RH  036%=      5-min Rain = 0
KLE1 180200Z 16012KT 34/16 A2986 RMK A01 T03360163  RH  036%=      5-min Rain = 0
KLE1 180201Z 16011KT 34/16 A2986 RMK A01 T03360162  RH  035%=      5-min Rain = 0
KLE1 180202Z 16014KT 34/16 A2986 RMK A01 T03350161  RH  035%=      5-min Rain = 0
KLE1 180203Z 16013KT 34/16 A2986 RMK A01 T03350161  RH  035%=      5-min Rain = 0
KLE1 180204Z 16013KT 34/16 A2986 RMK A01 T03350161  RH  035%=      5-min Rain = 0
KLE1 180205Z 16013KT 34/16 A2986 RMK A01 T03350160  RH  035%=      5-min Rain = 0
KLE1 180206Z 16013KT 34/16 A2986 RMK A01 T03350160  RH  035%=      5-min Rain = 0
KLE1 180207Z 16014KT 34/16 A2986 RMK A01 T03350160  RH  035%=      5-min Rain = 0
KLE1 180208Z 16011KT 34/16 A2987 RMK A01 T03350161  RH  035%=      5-min Rain = 0
KLE1 180209Z 16011KT 33/16 A2987 RMK A01 T03340160  RH  035%=      5-min Rain = 0
KLE1 180210Z 16011KT 33/16 A2987 RMK A01 T03330161  RH  036%=      5-min Rain = 0
KLE1 180211Z 16012KT 33/16 A2987 RMK A01 T03320160  RH  036%=      5-min Rain = 0
KLE1 180212Z 16012KT 33/16 A2987 RMK A01 T03320161  RH  036%=      5-min Rain = 0
KLE1 180213Z 16012KT 33/16 A2987 RMK A01 T03320161  RH  036%=      5-min Rain = 0
KLE1 180214Z 16012KT 33/16 A2987 RMK A01 T03320161  RH  036%=      5-min Rain = 0
KLE1 180215Z 16011KT 33/16 A2987 RMK A01 T03320161  RH  036%=      5-min Rain = 0
KLE1 180216Z 15012KT 33/16 A2987 RMK A01 T03310161  RH  036%=      5-min Rain = 0
KLE1 180217Z 16011KT 33/16 A2987 RMK A01 T03310160  RH  036%=      5-min Rain = 0
KLE1 180218Z 16012KT 33/16 A2987 RMK A01 T03310161  RH  036%=      5-min Rain = 0
KLE1 180219Z 16013KT 33/16 A2987 RMK A01 T03310160  RH  036%=      5-min Rain = 0
KLE1 180220Z 15014KT 33/16 A2987 RMK A01 T03310160  RH  036%=      5-min Rain = 0
KLE1 180221Z 16013KT 33/16 A2987 RMK A01 T03310160  RH  036%=      5-min Rain = 0
KLE1 180222Z 16014KT 33/16 A2987 RMK A01 T03310160  RH  036%=      5-min Rain = 0
KLE1 180223Z 15012KT 33/16 A2987 RMK A01 T03310160  RH  036%=      5-min Rain = 0
KLE1 180224Z 15012KT 33/16 A2987 RMK A01 T03300160  RH  036%=      5-min Rain = 0
KLE1 180225Z 16012KT 33/16 A2987 RMK A01 T03300160  RH  036%=      5-min Rain = 0
KLE1 180226Z 15013KT 33/16 A2987 RMK A01 T03290160  RH  036%=      5-min Rain = 0
KLE1 180227Z 16014KT 33/16 A2987 RMK A01 T03290160  RH  036%=      5-min Rain = 0
KLE1 180228Z 15013KT 33/16 A2987 RMK A01 T03290160  RH  036%=      5-min Rain = 0
KLE1 180229Z 15011KT 33/16 A2987 RMK A01 T03290160  RH  036%=      5-min Rain = 0
KLE1 180230Z 16014KT 33/16 A2987 RMK A01 T03290161  RH  037%=      5-min Rain = 0
KLE1 180231Z 15013KT 33/16 A2987 RMK A01 T03280161  RH  037%=      5-min Rain = 0
KLE1 180232Z 15012KT 33/16 A2987 RMK A01 T03280162  RH  037%=      5-min Rain = 0
KLE1 180233Z 15014KT 33/16 A2988 RMK A01 T03280162  RH  037%=      5-min Rain = 0
KLE1 180234Z 15013KT 33/16 A2988 RMK A01 T03280162  RH  037%=      5-min Rain = 0
KLE1 180235Z 15014KT 33/16 A2988 RMK A01 T03280164  RH  037%=      5-min Rain = 0
KLE1 180236Z 15012KT 33/16 A2988 RMK A01 T03280164  RH  038%=      5-min Rain = 0
KLE1 180237Z 15012KT 33/16 A2988 RMK A01 T03270164  RH  038%=      5-min Rain = 0
KLE1 180238Z 15013KT 33/17 A2988 RMK A01 T03260165  RH  038%=      5-min Rain = 0
KLE1 180239Z 15013KT 33/17 A2988 RMK A01 T03250166  RH  038%=      5-min Rain = 0
KLE1 180240Z 15013KT 33/17 A2988 RMK A01 T03250166  RH  039%=      5-min Rain = 0
KLE1 180241Z 15014KT 33/17 A2988 RMK A01 T03250166  RH  039%=      5-min Rain = 0
KLE1 180242Z 15014KT 33/17 A2988 RMK A01 T03250167  RH  039%=      5-min Rain = 0
KLE1 180243Z 16014KT 33/17 A2988 RMK A01 T03250168  RH  039%=      5-min Rain = 0
KLE1 180244Z 15013KT 33/17 A2988 RMK A01 T03250169  RH  039%=      5-min Rain = 0
KLE1 180245Z 15017KT 32/17 A2988 RMK A01 T03240169  RH  039%=      5-min Rain = 0
KLE1 180246Z 16013KT 32/17 A2988 RMK A01 T03240169  RH  039%=      5-min Rain = 0
KLE1 180247Z 16016KT 32/17 A2988 RMK A01 T03240170  RH  040%=      5-min Rain = 0
KLE1 180248Z 16017KT 32/17 A2988 RMK A01 T03240170  RH  040%=      5-min Rain = 0
KLE1 180249Z 16015KT 32/17 A2988 RMK A01 T03240171  RH  040%=      5-min Rain = 0
KLE1 180250Z 16014KT 32/17 A2988 RMK A01 T03240171  RH  040%=      5-min Rain = 0
KLE1 180251Z 16015KT 32/17 A2988 RMK A01 T03240171  RH  040%=      5-min Rain = 0
KLE1 180252Z 16013KT 32/17 A2988 RMK A01 T03240171  RH  040%=      5-min Rain = 0
KLE1 180253Z 16015KT 32/17 A2988 RMK A01 T03230171  RH  040%=      5-min Rain = 0
KLE1 180254Z 16016KT 32/17 A2988 RMK A01 T03220171  RH  040%=      5-min Rain = 0
KLE1 180255Z 16016KT 32/17 A2988 RMK A01 T03220171  RH  040%=      5-min Rain = 0
KLE1 180256Z 16018KT 32/17 A2988 RMK A01 T03220171  RH  040%=      5-min Rain = 0
KLE1 180257Z 16018KT 32/17 A2988 RMK A01 T03230171  RH  040%=      5-min Rain = 0
KLE1 180258Z 16015KT 32/17 A2988 RMK A01 T03240170  RH  040%=      5-min Rain = 0
KLE1 180259Z 16014KT 32/17 A2988 RMK A01 T03240171  RH  040%=      5-min Rain = 0
KLE1 180300Z 16016KT 32/17 A2988 RMK A01 T03220170  RH  040%=      5-min Rain = 0
KLE1 180301Z 16015KT 32/17 A2989 RMK A01 T03210170  RH  040%=      5-min Rain = 0
KLE1 180302Z 16016KT 32/17 A2989 RMK A01 T03210170  RH  040%=      5-min Rain = 0
KLE1 180303Z 15017KT 32/17 A2989 RMK A01 T03210170  RH  040%=      5-min Rain = 0
KLE1 180304Z 16014KT 32/17 A2989 RMK A01 T03210170  RH  040%=      5-min Rain = 0
KLE1 180305Z 16013G19KT 32/17 A2989 RMK A01 T03210170  RH  041%=      5-min Rain = 0
KLE1 180306Z 16014KT 32/17 A2989 RMK A01 T03200170  RH  041%=      5-min Rain = 0
KLE1 180307Z 17012G17KT 32/17 A2989 RMK A01 T03200170  RH  041%=      5-min Rain = 0
KLE1 180308Z 16015G20KT 32/17 A2989 RMK A01 T03200170  RH  041%=      5-min Rain = 0
KLE1 180309Z 16016G21KT 32/17 A2989 RMK A01 T03200169  RH  041%=      5-min Rain = 0
KLE1 180310Z 16016KT 32/17 A2989 RMK A01 T03200169  RH  040%=      5-min Rain = 0
KLE1 180311Z 16015KT 32/17 A2989 RMK A01 T03210169  RH  040%=      5-min Rain = 0
KLE1 180312Z 16014KT 32/17 A2989 RMK A01 T03210169  RH  040%=      5-min Rain = 0
KLE1 180313Z 16016KT 32/17 A2989 RMK A01 T03200169  RH  040%=      5-min Rain = 0
KLE1 180314Z 16015KT 32/17 A2989 RMK A01 T03190169  RH  040%=      5-min Rain = 0
KLE1 180315Z 16013KT 32/17 A2989 RMK A01 T03190169  RH  040%=      5-min Rain = 0
KLE1 180316Z 16012KT 32/17 A2989 RMK A01 T03190169  RH  041%=      5-min Rain = 0
KLE1 180317Z 16014KT 32/17 A2989 RMK A01 T03180168  RH  041%=      5-min Rain = 0
KLE1 180318Z 16014KT 32/17 A2989 RMK A01 T03180168  RH  041%=      5-min Rain = 0
KLE1 180319Z 16012KT 32/17 A2989 RMK A01 T03170168  RH  041%=      5-min Rain = 0
KLE1 180320Z 16012KT 32/17 A299 RMK A01 T03170168  RH  041%=      5-min Rain = 0
KLE1 180321Z 16013KT 32/17 A299 RMK A01 T03160168  RH  041%=      5-min Rain = 0
KLE1 180322Z 17017KT 32/17 A2989 RMK A01 T03160168  RH  041%=      5-min Rain = 0
KLE1 180323Z 16017KT 32/17 A2989 RMK A01 T03170167  RH  041%=      5-min Rain = 0
KLE1 180324Z 16016KT 32/17 A299 RMK A01 T03180167  RH  040%=      5-min Rain = 0
KLE1 180325Z 16016KT 32/17 A299 RMK A01 T03180167  RH  040%=      5-min Rain = 0
KLE1 180326Z 16016KT 32/17 A299 RMK A01 T03180167  RH  040%=      5-min Rain = 0
KLE1 180327Z 17015KT 32/17 A2989 RMK A01 T03180167  RH  040%=      5-min Rain = 0
KLE1 180328Z 16014KT 32/17 A2989 RMK A01 T03180167  RH  040%=      5-min Rain = 0
KLE1 180329Z 16015KT 32/17 A2989 RMK A01 T03170167  RH  040%=      5-min Rain = 0
KLE1 180330Z 17016KT 32/17 A2989 RMK A01 T03160166  RH  041%=      5-min Rain = 0
KLE1 180331Z 16017KT 32/17 A2989 RMK A01 T03170167  RH  041%=      5-min Rain = 0
KLE1 180332Z 17015KT 32/17 A299 RMK A01 T03160166  RH  041%=      5-min Rain = 0
KLE1 180333Z 17015KT 32/17 A299 RMK A01 T03160166  RH  041%=      5-min Rain = 0
KLE1 180334Z 16016KT 32/17 A299 RMK A01 T03170166  RH  041%=      5-min Rain = 0
KLE1 180335Z 16015KT 32/17 A299 RMK A01 T03170166  RH  041%=      5-min Rain = 0
KLE1 180336Z 16016KT 32/17 A299 RMK A01 T03160166  RH  041%=      5-min Rain = 0
KLE1 180337Z 16017KT 32/17 A299 RMK A01 T03160166  RH  041%=      5-min Rain = 0
KLE1 180338Z 16014KT 32/17 A299 RMK A01 T03160166  RH  041%=      5-min Rain = 0
KLE1 180339Z 16014KT 32/17 A299 RMK A01 T03160166  RH  041%=      5-min Rain = 0
KLE1 180340Z 16014KT 32/17 A299 RMK A01 T03150166  RH  041%=      5-min Rain = 0
KLE1 180341Z 16013KT 31/17 A299 RMK A01 T03140166  RH  041%=      5-min Rain = 0
KLE1 180342Z 16015KT 31/17 A299 RMK A01 T03140166  RH  041%=      5-min Rain = 0
KLE1 180343Z 16016KT 31/17 A299 RMK A01 T03140166  RH  041%=      5-min Rain = 0
KLE1 180344Z 17015KT 31/17 A299 RMK A01 T03140166  RH  041%=      5-min Rain = 0
KLE1 180345Z 16016G21KT 32/17 A299 RMK A01 T03150166  RH  041%=      5-min Rain = 0
KLE1 180346Z 17016KT 32/17 A299 RMK A01 T03150166  RH  041%=      5-min Rain = 0
KLE1 180347Z 17016G21KT 32/17 A299 RMK A01 T03150166  RH  041%=      5-min Rain = 0
KLE1 180348Z 16016KT 31/17 A299 RMK A01 T03140166  RH  041%=      5-min Rain = 0
KLE1 180349Z 16015KT 32/17 A299 RMK A01 T03150167  RH  041%=      5-min Rain = 0
KLE1 180350Z 16015KT 31/17 A299 RMK A01 T03140167  RH  041%=      5-min Rain = 0
KLE1 180351Z 17015KT 31/17 A299 RMK A01 T03140167  RH  041%=      5-min Rain = 0
KLE1 180352Z 16017KT 31/17 A299 RMK A01 T03140167  RH  041%=      5-min Rain = 0
KLE1 180353Z 17015KT 31/17 A299 RMK A01 T03140167  RH  041%=      5-min Rain = 0
KLE1 180354Z 17015KT 31/17 A299 RMK A01 T03140167  RH  041%=      5-min Rain = 0
KLE1 180355Z 17014G19KT 31/17 A299 RMK A01 T03130167  RH  041%=      5-min Rain = 0
KLE1 180356Z 16014KT 31/17 A299 RMK A01 T03130167  RH  042%=      5-min Rain = 0
KLE1 180357Z 16014KT 31/17 A299 RMK A01 T03130167  RH  042%=      5-min Rain = 0
KLE1 180358Z 16015KT 31/17 A299 RMK A01 T03120167  RH  042%=      5-min Rain = 0
KLE1 180359Z 16016KT 31/17 A299 RMK A01 T03120167  RH  042%=      5-min Rain = 0
KLE1 180400Z 17015KT 31/17 A299 RMK A01 T03120168  RH  042%=      5-min Rain = 0
KLE1 180401Z 16013KT 31/17 A299 RMK A01 T03110167  RH  042%=      5-min Rain = 0
KLE1 180402Z 16015KT 31/17 A299 RMK A01 T03110168  RH  042%=      5-min Rain = 0
KLE1 180403Z 16016KT 31/17 A299 RMK A01 T03110168  RH  042%=      5-min Rain = 0
KLE1 180404Z 16014KT 31/17 A299 RMK A01 T03110168  RH  042%=      5-min Rain = 0
KLE1 180405Z 16014KT 31/17 A299 RMK A01 T03110168  RH  042%=      5-min Rain = 0
KLE1 180406Z 16016KT 31/17 A299 RMK A01 T03100168  RH  042%=      5-min Rain = 0
KLE1 180407Z 16015KT 31/17 A299 RMK A01 T03110169  RH  043%=      5-min Rain = 0
KLE1 180408Z 16016KT 31/17 A299 RMK A01 T03100168  RH  043%=      5-min Rain = 0
KLE1 180409Z 16016KT 31/17 A299 RMK A01 T03110169  RH  043%=      5-min Rain = 0
KLE1 180410Z 17018KT 31/17 A299 RMK A01 T03100169  RH  043%=      5-min Rain = 0
KLE1 180411Z 16017KT 31/17 A299 RMK A01 T03100169  RH  043%=      5-min Rain = 0
KLE1 180412Z 17016KT 31/17 A299 RMK A01 T03100169  RH  043%=      5-min Rain = 0
KLE1 180413Z 16015KT 31/17 A299 RMK A01 T03100169  RH  043%=      5-min Rain = 0
KLE1 180414Z 16015KT 31/17 A299 RMK A01 T03100169  RH  043%=      5-min Rain = 0
KLE1 180415Z 17015KT 31/17 A299 RMK A01 T03100169  RH  043%=      5-min Rain = 0
KLE1 180416Z 17015KT 31/17 A299 RMK A01 T03090169  RH  043%=      5-min Rain = 0
KLE1 180417Z 16015KT 31/17 A299 RMK A01 T03090170  RH  043%=      5-min Rain = 0
KLE1 180418Z 16016KT 31/17 A299 RMK A01 T03100170  RH  043%=      5-min Rain = 0
KLE1 180419Z 17016G21KT 31/17 A299 RMK A01 T03100170  RH  043%=      5-min Rain = 0
KLE1 180420Z 17015G20KT 31/17 A299 RMK A01 T03090170  RH  043%=      5-min Rain = 0
KLE1 180421Z 16015KT 31/17 A299 RMK A01 T03090170  RH  043%=      5-min Rain = 0
KLE1 180422Z 16017KT 31/17 A299 RMK A01 T03090170  RH  043%=      5-min Rain = 0
KLE1 180423Z 16015KT 31/17 A299 RMK A01 T03090171  RH  044%=      5-min Rain = 0
KLE1 180424Z 17015KT 31/17 A299 RMK A01 T03090171  RH  044%=      5-min Rain = 0
KLE1 180425Z 16015KT 31/17 A299 RMK A01 T03090171  RH  044%=      5-min Rain = 0
KLE1 180426Z 16016KT 31/17 A299 RMK A01 T03080171  RH  044%=      5-min Rain = 0
KLE1 180427Z 16013KT 31/17 A299 RMK A01 T03080171  RH  044%=      5-min Rain = 0
KLE1 180428Z 16014KT 31/17 A299 RMK A01 T03070171  RH  044%=      5-min Rain = 0
KLE1 180429Z 17013G18KT 31/17 A299 RMK A01 T03070172  RH  044%=      5-min Rain = 0
KLE1 180430Z 17014KT 31/17 A299 RMK A01 T03070172  RH  044%=      5-min Rain = 0
KLE1 180431Z 16016KT 31/17 A299 RMK A01 T03060172  RH  044%=      5-min Rain = 0
KLE1 180432Z 17014KT 31/17 A299 RMK A01 T03070172  RH  044%=      5-min Rain = 0
KLE1 180433Z 17017KT 31/17 A299 RMK A01 T03070172  RH  044%=      5-min Rain = 0
KLE1 180434Z 17014KT 31/17 A299 RMK A01 T03070172  RH  044%=      5-min Rain = 0
KLE1 180435Z 17012KT 31/17 A299 RMK A01 T03070172  RH  044%=      5-min Rain = 0
KLE1 180436Z 17012KT 31/17 A299 RMK A01 T03060172  RH  045%=      5-min Rain = 0
KLE1 180437Z 17014KT 31/17 A299 RMK A01 T03060172  RH  045%=      5-min Rain = 0
KLE1 180438Z 17015KT 31/17 A299 RMK A01 T03050172  RH  045%=      5-min Rain = 0
KLE1 180439Z 17013KT 31/17 A299 RMK A01 T03060173  RH  045%=      5-min Rain = 0
KLE1 180440Z 17014KT 31/17 A2991 RMK A01 T03050172  RH  045%=      5-min Rain = 0
KLE1 180441Z 17014KT 31/17 A2991 RMK A01 T03050173  RH  045%=      5-min Rain = 0
KLE1 180442Z 17014KT 31/17 A2991 RMK A01 T03050173  RH  045%=      5-min Rain = 0
KLE1 180443Z 17014KT 31/17 A2991 RMK A01 T03050173  RH  045%=      5-min Rain = 0
KLE1 180444Z 17013KT 31/17 A2991 RMK A01 T03050173  RH  045%=      5-min Rain = 0
KLE1 180445Z 17013KT 31/17 A2991 RMK A01 T03050173  RH  045%=      5-min Rain = 0
KLE1 180446Z 17013KT 31/17 A2991 RMK A01 T03050173  RH  045%=      5-min Rain = 0
KLE1 180447Z 17015KT 31/17 A2991 RMK A01 T03050173  RH  045%=      5-min Rain = 0
KLE1 180448Z 17013KT 31/17 A2991 RMK A01 T03050173  RH  045%=      5-min Rain = 0
KLE1 180449Z 18011G17KT 31/17 A2991 RMK A01 T03050173  RH  045%=      5-min Rain = 0
KLE1 180450Z 17011KT 30/17 A2991 RMK A01 T03040173  RH  046%=      5-min Rain = 0
KLE1 180451Z 17012KT 30/17 A2991 RMK A01 T03030173  RH  046%=      5-min Rain = 0
KLE1 180452Z 17014KT 30/17 A2991 RMK A01 T03030173  RH  046%=      5-min Rain = 0
KLE1 180453Z 17015KT 30/17 A2991 RMK A01 T03030173  RH  046%=      5-min Rain = 0
KLE1 180454Z 18013KT 30/17 A2991 RMK A01 T03040174  RH  046%=      5-min Rain = 0
KLE1 180455Z 17014KT 30/17 A2991 RMK A01 T03040174  RH  046%=      5-min Rain = 0
KLE1 180456Z 17012KT 30/17 A2991 RMK A01 T03040174  RH  046%=      5-min Rain = 0
KLE1 180457Z 17012KT 30/17 A2992 RMK A01 T03040174  RH  046%=      5-min Rain = 0
KLE1 180458Z 17015KT 30/17 A2991 RMK A01 T03030174  RH  046%=      5-min Rain = 0
KLE1 180459Z 17014KT 30/17 A2992 RMK A01 T03030174  RH  046%=      5-min Rain = 0

Page generated in 0.1214 seconds.